<?xml version="1.0" encoding="UTF-8" standalone="no" ?>
<gpx xmlns="http://www.topografix.com/GPX/1/1" xmlns:xsi="http://www.w3.org/2001/XMLSchema-instance" xsi:schemaLocation="http://www.topografix.com/GPX/1/1 http://www.topografix.com/GPX/1/1/gpx.xsd" version="1.1" creator="VisuGPX - https://www.visugpx.com">
  <metadata>
    <name>spicheren vers St arnualt</name>
    <desc><![CDATA[très bon parcours...aucune difficulté ]]></desc>
  </metadata>
  <trk>
    <name><![CDATA[2019-04-28 11:15:33]]></name>
    <trkseg>
      <trkpt lat="49.19089" lon="6.9654">
        <ele>312.09</ele>
        <time>2019-04-28T06:26:35Z</time>
      </trkpt>
      <trkpt lat="49.19089" lon="6.96541">
        <ele>312.09</ele>
        <time>2019-04-28T06:26:36Z</time>
      </trkpt>
      <trkpt lat="49.19092" lon="6.96541">
        <ele>311.12</ele>
        <time>2019-04-28T06:26:51Z</time>
      </trkpt>
      <trkpt lat="49.19112" lon="6.96556">
        <ele>311.12</ele>
        <time>2019-04-28T06:27:08Z</time>
      </trkpt>
      <trkpt lat="49.19136" lon="6.96572">
        <ele>310.16</ele>
        <time>2019-04-28T06:27:26Z</time>
      </trkpt>
      <trkpt lat="49.19156" lon="6.96582">
        <ele>309.2</ele>
        <time>2019-04-28T06:27:42Z</time>
      </trkpt>
      <trkpt lat="49.19165" lon="6.96609">
        <ele>308.24</ele>
        <time>2019-04-28T06:27:57Z</time>
      </trkpt>
      <trkpt lat="49.19193" lon="6.96612">
        <ele>308.24</ele>
        <time>2019-04-28T06:28:17Z</time>
      </trkpt>
      <trkpt lat="49.19207" lon="6.96613">
        <ele>309.68</ele>
        <time>2019-04-28T06:28:26Z</time>
      </trkpt>
      <trkpt lat="49.19223" lon="6.96614">
        <ele>309.68</ele>
        <time>2019-04-28T06:28:38Z</time>
      </trkpt>
      <trkpt lat="49.19249" lon="6.96629">
        <ele>309.2</ele>
        <time>2019-04-28T06:28:59Z</time>
      </trkpt>
      <trkpt lat="49.19278" lon="6.96651">
        <ele>311.12</ele>
        <time>2019-04-28T06:29:22Z</time>
      </trkpt>
      <trkpt lat="49.19308" lon="6.96668">
        <ele>311.12</ele>
        <time>2019-04-28T06:29:41Z</time>
      </trkpt>
      <trkpt lat="49.19339" lon="6.96681">
        <ele>311.12</ele>
        <time>2019-04-28T06:30:03Z</time>
      </trkpt>
      <trkpt lat="49.1937" lon="6.96695">
        <ele>312.09</ele>
        <time>2019-04-28T06:30:27Z</time>
      </trkpt>
      <trkpt lat="49.19384" lon="6.96703">
        <ele>312.09</ele>
        <time>2019-04-28T06:30:39Z</time>
      </trkpt>
      <trkpt lat="49.19407" lon="6.96716">
        <ele>314.01</ele>
        <time>2019-04-28T06:30:57Z</time>
      </trkpt>
      <trkpt lat="49.19433" lon="6.96732">
        <ele>315.45</ele>
        <time>2019-04-28T06:31:19Z</time>
      </trkpt>
      <trkpt lat="49.19455" lon="6.96744">
        <ele>316.89</ele>
        <time>2019-04-28T06:31:37Z</time>
      </trkpt>
      <trkpt lat="49.19484" lon="6.9676">
        <ele>317.85</ele>
        <time>2019-04-28T06:31:58Z</time>
      </trkpt>
      <trkpt lat="49.19513" lon="6.96765">
        <ele>319.3</ele>
        <time>2019-04-28T06:32:18Z</time>
      </trkpt>
      <trkpt lat="49.19546" lon="6.96764">
        <ele>320.26</ele>
        <time>2019-04-28T06:32:39Z</time>
      </trkpt>
      <trkpt lat="49.19579" lon="6.96761">
        <ele>321.7</ele>
        <time>2019-04-28T06:33:00Z</time>
      </trkpt>
      <trkpt lat="49.19606" lon="6.96764">
        <ele>323.62</ele>
        <time>2019-04-28T06:33:19Z</time>
      </trkpt>
      <trkpt lat="49.19633" lon="6.96771">
        <ele>325.06</ele>
        <time>2019-04-28T06:33:38Z</time>
      </trkpt>
      <trkpt lat="49.19666" lon="6.96778">
        <ele>325.54</ele>
        <time>2019-04-28T06:34:01Z</time>
      </trkpt>
      <trkpt lat="49.19691" lon="6.96781">
        <ele>324.1</ele>
        <time>2019-04-28T06:34:20Z</time>
      </trkpt>
      <trkpt lat="49.19706" lon="6.96788">
        <ele>320.26</ele>
        <time>2019-04-28T06:34:30Z</time>
      </trkpt>
      <trkpt lat="49.19708" lon="6.96789">
        <ele>319.3</ele>
        <time>2019-04-28T06:34:32Z</time>
      </trkpt>
      <trkpt lat="49.19724" lon="6.96795">
        <ele>315.93</ele>
        <time>2019-04-28T06:34:44Z</time>
      </trkpt>
      <trkpt lat="49.19735" lon="6.968">
        <ele>312.57</ele>
        <time>2019-04-28T06:34:52Z</time>
      </trkpt>
      <trkpt lat="49.19756" lon="6.96815">
        <ele>308.72</ele>
        <time>2019-04-28T06:35:09Z</time>
      </trkpt>
      <trkpt lat="49.19763" lon="6.96818">
        <ele>308.24</ele>
        <time>2019-04-28T06:35:16Z</time>
      </trkpt>
      <trkpt lat="49.19794" lon="6.96823">
        <ele>304.88</ele>
        <time>2019-04-28T06:35:36Z</time>
      </trkpt>
      <trkpt lat="49.19823" lon="6.96826">
        <ele>302.95</ele>
        <time>2019-04-28T06:35:53Z</time>
      </trkpt>
      <trkpt lat="49.19845" lon="6.96826">
        <ele>303.43</ele>
        <time>2019-04-28T06:36:09Z</time>
      </trkpt>
      <trkpt lat="49.19847" lon="6.96824">
        <ele>303.91</ele>
        <time>2019-04-28T06:36:11Z</time>
      </trkpt>
      <trkpt lat="49.19865" lon="6.96791">
        <ele>305.36</ele>
        <time>2019-04-28T06:36:30Z</time>
      </trkpt>
      <trkpt lat="49.1987" lon="6.96767">
        <ele>308.24</ele>
        <time>2019-04-28T06:36:42Z</time>
      </trkpt>
      <trkpt lat="49.19877" lon="6.96735">
        <ele>311.6</ele>
        <time>2019-04-28T06:36:59Z</time>
      </trkpt>
      <trkpt lat="49.19886" lon="6.96705">
        <ele>313.53</ele>
        <time>2019-04-28T06:37:13Z</time>
      </trkpt>
      <trkpt lat="49.19891" lon="6.96698">
        <ele>314.97</ele>
        <time>2019-04-28T06:37:19Z</time>
      </trkpt>
      <trkpt lat="49.19902" lon="6.96695">
        <ele>317.85</ele>
        <time>2019-04-28T06:37:30Z</time>
      </trkpt>
      <trkpt lat="49.19919" lon="6.96692">
        <ele>321.22</ele>
        <time>2019-04-28T06:37:48Z</time>
      </trkpt>
      <trkpt lat="49.19949" lon="6.96693">
        <ele>323.14</ele>
        <time>2019-04-28T06:38:05Z</time>
      </trkpt>
      <trkpt lat="49.19985" lon="6.96691">
        <ele>326.5</ele>
        <time>2019-04-28T06:38:27Z</time>
      </trkpt>
      <trkpt lat="49.19988" lon="6.96692">
        <ele>326.5</ele>
        <time>2019-04-28T06:38:30Z</time>
      </trkpt>
      <trkpt lat="49.20006" lon="6.96726">
        <ele>326.02</ele>
        <time>2019-04-28T06:38:47Z</time>
      </trkpt>
      <trkpt lat="49.20018" lon="6.96768">
        <ele>325.54</ele>
        <time>2019-04-28T06:39:06Z</time>
      </trkpt>
      <trkpt lat="49.20028" lon="6.96808">
        <ele>324.58</ele>
        <time>2019-04-28T06:39:25Z</time>
      </trkpt>
      <trkpt lat="49.20035" lon="6.96836">
        <ele>323.62</ele>
        <time>2019-04-28T06:39:41Z</time>
      </trkpt>
      <trkpt lat="49.20047" lon="6.96867">
        <ele>322.66</ele>
        <time>2019-04-28T06:39:58Z</time>
      </trkpt>
      <trkpt lat="49.20048" lon="6.96874">
        <ele>321.7</ele>
        <time>2019-04-28T06:40:02Z</time>
      </trkpt>
      <trkpt lat="49.20062" lon="6.96913">
        <ele>321.22</ele>
        <time>2019-04-28T06:40:22Z</time>
      </trkpt>
      <trkpt lat="49.20071" lon="6.96951">
        <ele>319.3</ele>
        <time>2019-04-28T06:40:39Z</time>
      </trkpt>
      <trkpt lat="49.20081" lon="6.96987">
        <ele>318.81</ele>
        <time>2019-04-28T06:40:56Z</time>
      </trkpt>
      <trkpt lat="49.20083" lon="6.97011">
        <ele>318.81</ele>
        <time>2019-04-28T06:41:06Z</time>
      </trkpt>
      <trkpt lat="49.20087" lon="6.97023">
        <ele>317.37</ele>
        <time>2019-04-28T06:41:12Z</time>
      </trkpt>
      <trkpt lat="49.20086" lon="6.9707">
        <ele>316.41</ele>
        <time>2019-04-28T06:41:31Z</time>
      </trkpt>
      <trkpt lat="49.20084" lon="6.97102">
        <ele>314.97</ele>
        <time>2019-04-28T06:41:48Z</time>
      </trkpt>
      <trkpt lat="49.20082" lon="6.97125">
        <ele>314.01</ele>
        <time>2019-04-28T06:42:00Z</time>
      </trkpt>
      <trkpt lat="49.20084" lon="6.97144">
        <ele>313.05</ele>
        <time>2019-04-28T06:42:09Z</time>
      </trkpt>
      <trkpt lat="49.2007" lon="6.97193">
        <ele>312.57</ele>
        <time>2019-04-28T06:42:26Z</time>
      </trkpt>
      <trkpt lat="49.2007" lon="6.97243">
        <ele>312.09</ele>
        <time>2019-04-28T06:42:48Z</time>
      </trkpt>
      <trkpt lat="49.20069" lon="6.97281">
        <ele>311.12</ele>
        <time>2019-04-28T06:43:04Z</time>
      </trkpt>
      <trkpt lat="49.20063" lon="6.97305">
        <ele>311.12</ele>
        <time>2019-04-28T06:43:14Z</time>
      </trkpt>
      <trkpt lat="49.20065" lon="6.97356">
        <ele>311.6</ele>
        <time>2019-04-28T06:43:37Z</time>
      </trkpt>
      <trkpt lat="49.20061" lon="6.97407">
        <ele>311.6</ele>
        <time>2019-04-28T06:43:58Z</time>
      </trkpt>
      <trkpt lat="49.20065" lon="6.9745">
        <ele>312.57</ele>
        <time>2019-04-28T06:44:17Z</time>
      </trkpt>
      <trkpt lat="49.20053" lon="6.9749">
        <ele>312.09</ele>
        <time>2019-04-28T06:44:32Z</time>
      </trkpt>
      <trkpt lat="49.2005" lon="6.97503">
        <ele>312.09</ele>
        <time>2019-04-28T06:44:38Z</time>
      </trkpt>
      <trkpt lat="49.20048" lon="6.97556">
        <ele>313.05</ele>
        <time>2019-04-28T06:45:00Z</time>
      </trkpt>
      <trkpt lat="49.20055" lon="6.97592">
        <ele>313.05</ele>
        <time>2019-04-28T06:45:17Z</time>
      </trkpt>
      <trkpt lat="49.2006" lon="6.97633">
        <ele>313.05</ele>
        <time>2019-04-28T06:45:36Z</time>
      </trkpt>
      <trkpt lat="49.20062" lon="6.9767">
        <ele>312.57</ele>
        <time>2019-04-28T06:45:53Z</time>
      </trkpt>
      <trkpt lat="49.20071" lon="6.97707">
        <ele>313.05</ele>
        <time>2019-04-28T06:46:11Z</time>
      </trkpt>
      <trkpt lat="49.20073" lon="6.97761">
        <ele>313.05</ele>
        <time>2019-04-28T06:46:31Z</time>
      </trkpt>
      <trkpt lat="49.20077" lon="6.978">
        <ele>313.53</ele>
        <time>2019-04-28T06:46:48Z</time>
      </trkpt>
      <trkpt lat="49.20083" lon="6.97849">
        <ele>314.01</ele>
        <time>2019-04-28T06:47:09Z</time>
      </trkpt>
      <trkpt lat="49.20082" lon="6.97898">
        <ele>314.97</ele>
        <time>2019-04-28T06:47:30Z</time>
      </trkpt>
      <trkpt lat="49.2008" lon="6.97932">
        <ele>315.45</ele>
        <time>2019-04-28T06:47:47Z</time>
      </trkpt>
      <trkpt lat="49.20059" lon="6.97958">
        <ele>315.45</ele>
        <time>2019-04-28T06:48:05Z</time>
      </trkpt>
      <trkpt lat="49.20059" lon="6.97964">
        <ele>315.93</ele>
        <time>2019-04-28T06:48:09Z</time>
      </trkpt>
      <trkpt lat="49.20059" lon="6.97966">
        <ele>316.41</ele>
        <time>2019-04-28T06:48:10Z</time>
      </trkpt>
      <trkpt lat="49.20066" lon="6.98">
        <ele>317.37</ele>
        <time>2019-04-28T06:48:29Z</time>
      </trkpt>
      <trkpt lat="49.20085" lon="6.98034">
        <ele>318.81</ele>
        <time>2019-04-28T06:48:47Z</time>
      </trkpt>
      <trkpt lat="49.201" lon="6.98069">
        <ele>319.3</ele>
        <time>2019-04-28T06:49:06Z</time>
      </trkpt>
      <trkpt lat="49.20106" lon="6.98109">
        <ele>320.26</ele>
        <time>2019-04-28T06:49:24Z</time>
      </trkpt>
      <trkpt lat="49.20125" lon="6.98141">
        <ele>321.22</ele>
        <time>2019-04-28T06:49:41Z</time>
      </trkpt>
      <trkpt lat="49.20139" lon="6.9817">
        <ele>323.14</ele>
        <time>2019-04-28T06:49:58Z</time>
      </trkpt>
      <trkpt lat="49.2016" lon="6.98199">
        <ele>324.58</ele>
        <time>2019-04-28T06:50:16Z</time>
      </trkpt>
      <trkpt lat="49.20169" lon="6.98231">
        <ele>326.02</ele>
        <time>2019-04-28T06:50:32Z</time>
      </trkpt>
      <trkpt lat="49.20181" lon="6.98261">
        <ele>326.99</ele>
        <time>2019-04-28T06:50:48Z</time>
      </trkpt>
      <trkpt lat="49.20193" lon="6.98294">
        <ele>328.43</ele>
        <time>2019-04-28T06:51:05Z</time>
      </trkpt>
      <trkpt lat="49.20213" lon="6.98328">
        <ele>329.87</ele>
        <time>2019-04-28T06:51:25Z</time>
      </trkpt>
      <trkpt lat="49.2021" lon="6.9836">
        <ele>328.43</ele>
        <time>2019-04-28T06:51:38Z</time>
      </trkpt>
      <trkpt lat="49.20208" lon="6.98362">
        <ele>328.91</ele>
        <time>2019-04-28T06:51:39Z</time>
      </trkpt>
      <trkpt lat="49.20152" lon="6.98426">
        <ele>326.99</ele>
        <time>2019-04-28T06:52:03Z</time>
      </trkpt>
      <trkpt lat="49.20127" lon="6.98468">
        <ele>326.5</ele>
        <time>2019-04-28T06:52:27Z</time>
      </trkpt>
      <trkpt lat="49.20097" lon="6.98505">
        <ele>326.5</ele>
        <time>2019-04-28T06:52:53Z</time>
      </trkpt>
      <trkpt lat="49.20074" lon="6.9854">
        <ele>326.5</ele>
        <time>2019-04-28T06:53:14Z</time>
      </trkpt>
      <trkpt lat="49.20058" lon="6.98576">
        <ele>328.91</ele>
        <time>2019-04-28T06:53:34Z</time>
      </trkpt>
      <trkpt lat="49.20046" lon="6.98609">
        <ele>328.91</ele>
        <time>2019-04-28T06:53:53Z</time>
      </trkpt>
      <trkpt lat="49.20026" lon="6.9865">
        <ele>329.87</ele>
        <time>2019-04-28T06:54:15Z</time>
      </trkpt>
      <trkpt lat="49.20009" lon="6.98683">
        <ele>329.39</ele>
        <time>2019-04-28T06:54:34Z</time>
      </trkpt>
      <trkpt lat="49.1999" lon="6.98715">
        <ele>329.39</ele>
        <time>2019-04-28T06:54:52Z</time>
      </trkpt>
      <trkpt lat="49.19969" lon="6.98749">
        <ele>328.91</ele>
        <time>2019-04-28T06:55:10Z</time>
      </trkpt>
      <trkpt lat="49.1995" lon="6.9879">
        <ele>327.47</ele>
        <time>2019-04-28T06:55:29Z</time>
      </trkpt>
      <trkpt lat="49.19941" lon="6.98828">
        <ele>327.95</ele>
        <time>2019-04-28T06:55:47Z</time>
      </trkpt>
      <trkpt lat="49.19942" lon="6.98843">
        <ele>327.95</ele>
        <time>2019-04-28T06:55:54Z</time>
      </trkpt>
      <trkpt lat="49.19943" lon="6.98887">
        <ele>328.43</ele>
        <time>2019-04-28T06:56:14Z</time>
      </trkpt>
      <trkpt lat="49.19945" lon="6.98943">
        <ele>327.47</ele>
        <time>2019-04-28T06:56:37Z</time>
      </trkpt>
      <trkpt lat="49.19947" lon="6.98985">
        <ele>326.99</ele>
        <time>2019-04-28T06:56:55Z</time>
      </trkpt>
      <trkpt lat="49.19951" lon="6.99039">
        <ele>327.47</ele>
        <time>2019-04-28T06:57:18Z</time>
      </trkpt>
      <trkpt lat="49.19957" lon="6.99075">
        <ele>326.5</ele>
        <time>2019-04-28T06:57:38Z</time>
      </trkpt>
      <trkpt lat="49.19962" lon="6.99123">
        <ele>326.5</ele>
        <time>2019-04-28T06:57:58Z</time>
      </trkpt>
      <trkpt lat="49.19969" lon="6.99144">
        <ele>326.5</ele>
        <time>2019-04-28T06:58:16Z</time>
      </trkpt>
      <trkpt lat="49.1997" lon="6.99138">
        <ele>326.02</ele>
        <time>2019-04-28T06:58:46Z</time>
      </trkpt>
      <trkpt lat="49.19969" lon="6.99143">
        <ele>325.06</ele>
        <time>2019-04-28T06:59:09Z</time>
      </trkpt>
      <trkpt lat="49.19966" lon="6.99148">
        <ele>325.54</ele>
        <time>2019-04-28T06:59:35Z</time>
      </trkpt>
      <trkpt lat="49.19963" lon="6.9915">
        <ele>325.06</ele>
        <time>2019-04-28T06:59:55Z</time>
      </trkpt>
      <trkpt lat="49.19961" lon="6.99146">
        <ele>324.58</ele>
        <time>2019-04-28T07:00:15Z</time>
      </trkpt>
      <trkpt lat="49.19963" lon="6.99142">
        <ele>324.58</ele>
        <time>2019-04-28T07:00:30Z</time>
      </trkpt>
      <trkpt lat="49.19966" lon="6.99141">
        <ele>326.5</ele>
        <time>2019-04-28T07:00:34Z</time>
      </trkpt>
      <trkpt lat="49.19975" lon="6.99129">
        <ele>326.99</ele>
        <time>2019-04-28T07:00:44Z</time>
      </trkpt>
      <trkpt lat="49.19986" lon="6.99124">
        <ele>329.87</ele>
        <time>2019-04-28T07:00:59Z</time>
      </trkpt>
      <trkpt lat="49.20021" lon="6.99127">
        <ele>330.83</ele>
        <time>2019-04-28T07:01:17Z</time>
      </trkpt>
      <trkpt lat="49.20048" lon="6.9913">
        <ele>334.2</ele>
        <time>2019-04-28T07:01:38Z</time>
      </trkpt>
      <trkpt lat="49.20069" lon="6.99112">
        <ele>334.68</ele>
        <time>2019-04-28T07:01:56Z</time>
      </trkpt>
      <trkpt lat="49.20092" lon="6.99088">
        <ele>336.12</ele>
        <time>2019-04-28T07:02:16Z</time>
      </trkpt>
      <trkpt lat="49.20114" lon="6.99078">
        <ele>337.56</ele>
        <time>2019-04-28T07:02:36Z</time>
      </trkpt>
      <trkpt lat="49.20135" lon="6.99097">
        <ele>339.48</ele>
        <time>2019-04-28T07:02:56Z</time>
      </trkpt>
      <trkpt lat="49.20141" lon="6.99104">
        <ele>340.92</ele>
        <time>2019-04-28T07:03:02Z</time>
      </trkpt>
      <trkpt lat="49.20156" lon="6.99104">
        <ele>340.92</ele>
        <time>2019-04-28T07:03:19Z</time>
      </trkpt>
      <trkpt lat="49.20164" lon="6.99077">
        <ele>339.96</ele>
        <time>2019-04-28T07:03:36Z</time>
      </trkpt>
      <trkpt lat="49.20163" lon="6.99072">
        <ele>339.48</ele>
        <time>2019-04-28T07:03:38Z</time>
      </trkpt>
      <trkpt lat="49.20167" lon="6.99063">
        <ele>340.44</ele>
        <time>2019-04-28T07:03:43Z</time>
      </trkpt>
      <trkpt lat="49.20187" lon="6.99043">
        <ele>340.92</ele>
        <time>2019-04-28T07:04:03Z</time>
      </trkpt>
      <trkpt lat="49.20199" lon="6.98999">
        <ele>340.92</ele>
        <time>2019-04-28T07:04:22Z</time>
      </trkpt>
      <trkpt lat="49.20209" lon="6.98968">
        <ele>339.48</ele>
        <time>2019-04-28T07:04:36Z</time>
      </trkpt>
      <trkpt lat="49.20235" lon="6.98952">
        <ele>338.04</ele>
        <time>2019-04-28T07:04:59Z</time>
      </trkpt>
      <trkpt lat="49.20252" lon="6.98982">
        <ele>336.6</ele>
        <time>2019-04-28T07:05:18Z</time>
      </trkpt>
      <trkpt lat="49.20279" lon="6.99016">
        <ele>334.68</ele>
        <time>2019-04-28T07:05:35Z</time>
      </trkpt>
      <trkpt lat="49.20291" lon="6.9906">
        <ele>332.75</ele>
        <time>2019-04-28T07:05:56Z</time>
      </trkpt>
      <trkpt lat="49.20304" lon="6.99078">
        <ele>331.31</ele>
        <time>2019-04-28T07:06:10Z</time>
      </trkpt>
      <trkpt lat="49.20319" lon="6.99101">
        <ele>329.39</ele>
        <time>2019-04-28T07:06:28Z</time>
      </trkpt>
      <trkpt lat="49.20326" lon="6.9912">
        <ele>329.39</ele>
        <time>2019-04-28T07:06:38Z</time>
      </trkpt>
      <trkpt lat="49.2035" lon="6.99166">
        <ele>326.99</ele>
        <time>2019-04-28T07:07:00Z</time>
      </trkpt>
      <trkpt lat="49.20364" lon="6.99183">
        <ele>326.5</ele>
        <time>2019-04-28T07:07:10Z</time>
      </trkpt>
      <trkpt lat="49.20377" lon="6.992">
        <ele>325.06</ele>
        <time>2019-04-28T07:07:18Z</time>
      </trkpt>
      <trkpt lat="49.20395" lon="6.99243">
        <ele>323.62</ele>
        <time>2019-04-28T07:07:40Z</time>
      </trkpt>
      <trkpt lat="49.20397" lon="6.99249">
        <ele>322.66</ele>
        <time>2019-04-28T07:07:43Z</time>
      </trkpt>
      <trkpt lat="49.2041" lon="6.99285">
        <ele>321.7</ele>
        <time>2019-04-28T07:07:59Z</time>
      </trkpt>
      <trkpt lat="49.20428" lon="6.99326">
        <ele>320.74</ele>
        <time>2019-04-28T07:08:17Z</time>
      </trkpt>
      <trkpt lat="49.20442" lon="6.99353">
        <ele>319.3</ele>
        <time>2019-04-28T07:08:33Z</time>
      </trkpt>
      <trkpt lat="49.20459" lon="6.99369">
        <ele>317.37</ele>
        <time>2019-04-28T07:08:47Z</time>
      </trkpt>
      <trkpt lat="49.20479" lon="6.99397">
        <ele>316.89</ele>
        <time>2019-04-28T07:09:04Z</time>
      </trkpt>
      <trkpt lat="49.20493" lon="6.99424">
        <ele>314.97</ele>
        <time>2019-04-28T07:09:21Z</time>
      </trkpt>
      <trkpt lat="49.20509" lon="6.99448">
        <ele>314.01</ele>
        <time>2019-04-28T07:09:34Z</time>
      </trkpt>
      <trkpt lat="49.20547" lon="6.99484">
        <ele>311.6</ele>
        <time>2019-04-28T07:09:54Z</time>
      </trkpt>
      <trkpt lat="49.20549" lon="6.99487">
        <ele>311.12</ele>
        <time>2019-04-28T07:09:56Z</time>
      </trkpt>
      <trkpt lat="49.20578" lon="6.99518">
        <ele>309.68</ele>
        <time>2019-04-28T07:10:18Z</time>
      </trkpt>
      <trkpt lat="49.20602" lon="6.99548">
        <ele>308.24</ele>
        <time>2019-04-28T07:10:36Z</time>
      </trkpt>
      <trkpt lat="49.20612" lon="6.99585">
        <ele>305.84</ele>
        <time>2019-04-28T07:10:53Z</time>
      </trkpt>
      <trkpt lat="49.20611" lon="6.99632">
        <ele>303.43</ele>
        <time>2019-04-28T07:11:12Z</time>
      </trkpt>
      <trkpt lat="49.20608" lon="6.99677">
        <ele>302.47</ele>
        <time>2019-04-28T07:11:31Z</time>
      </trkpt>
      <trkpt lat="49.20602" lon="6.99718">
        <ele>300.55</ele>
        <time>2019-04-28T07:11:48Z</time>
      </trkpt>
      <trkpt lat="49.20593" lon="6.99762">
        <ele>298.15</ele>
        <time>2019-04-28T07:12:08Z</time>
      </trkpt>
      <trkpt lat="49.20582" lon="6.99802">
        <ele>297.67</ele>
        <time>2019-04-28T07:12:25Z</time>
      </trkpt>
      <trkpt lat="49.20581" lon="6.99805">
        <ele>297.67</ele>
        <time>2019-04-28T07:12:26Z</time>
      </trkpt>
      <trkpt lat="49.20568" lon="6.99836">
        <ele>296.22</ele>
        <time>2019-04-28T07:12:42Z</time>
      </trkpt>
      <trkpt lat="49.20564" lon="6.9986">
        <ele>296.22</ele>
        <time>2019-04-28T07:12:54Z</time>
      </trkpt>
      <trkpt lat="49.2056" lon="6.99907">
        <ele>295.26</ele>
        <time>2019-04-28T07:13:11Z</time>
      </trkpt>
      <trkpt lat="49.20566" lon="6.99954">
        <ele>293.34</ele>
        <time>2019-04-28T07:13:29Z</time>
      </trkpt>
      <trkpt lat="49.20567" lon="6.99967">
        <ele>292.38</ele>
        <time>2019-04-28T07:13:34Z</time>
      </trkpt>
      <trkpt lat="49.2058" lon="7.00005">
        <ele>291.9</ele>
        <time>2019-04-28T07:13:53Z</time>
      </trkpt>
      <trkpt lat="49.20587" lon="7.00018">
        <ele>291.9</ele>
        <time>2019-04-28T07:14:01Z</time>
      </trkpt>
      <trkpt lat="49.20601" lon="7.0005">
        <ele>290.46</ele>
        <time>2019-04-28T07:14:18Z</time>
      </trkpt>
      <trkpt lat="49.20592" lon="7.00093">
        <ele>289.49</ele>
        <time>2019-04-28T07:14:36Z</time>
      </trkpt>
      <trkpt lat="49.20589" lon="7.00119">
        <ele>289.01</ele>
        <time>2019-04-28T07:14:54Z</time>
      </trkpt>
      <trkpt lat="49.20594" lon="7.00121">
        <ele>289.49</ele>
        <time>2019-04-28T07:15:27Z</time>
      </trkpt>
      <trkpt lat="49.20594" lon="7.00126">
        <ele>290.46</ele>
        <time>2019-04-28T07:15:52Z</time>
      </trkpt>
      <trkpt lat="49.20594" lon="7.00136">
        <ele>290.46</ele>
        <time>2019-04-28T07:15:58Z</time>
      </trkpt>
      <trkpt lat="49.20593" lon="7.00188">
        <ele>289.97</ele>
        <time>2019-04-28T07:16:16Z</time>
      </trkpt>
      <trkpt lat="49.20611" lon="7.00219">
        <ele>290.46</ele>
        <time>2019-04-28T07:16:33Z</time>
      </trkpt>
      <trkpt lat="49.20637" lon="7.00236">
        <ele>290.46</ele>
        <time>2019-04-28T07:16:52Z</time>
      </trkpt>
      <trkpt lat="49.20657" lon="7.00256">
        <ele>290.94</ele>
        <time>2019-04-28T07:17:11Z</time>
      </trkpt>
      <trkpt lat="49.20666" lon="7.0026">
        <ele>290.46</ele>
        <time>2019-04-28T07:17:18Z</time>
      </trkpt>
      <trkpt lat="49.20691" lon="7.00261">
        <ele>290.94</ele>
        <time>2019-04-28T07:17:34Z</time>
      </trkpt>
      <trkpt lat="49.20711" lon="7.00256">
        <ele>290.46</ele>
        <time>2019-04-28T07:17:48Z</time>
      </trkpt>
      <trkpt lat="49.20732" lon="7.00232">
        <ele>290.94</ele>
        <time>2019-04-28T07:18:06Z</time>
      </trkpt>
      <trkpt lat="49.20762" lon="7.00196">
        <ele>291.42</ele>
        <time>2019-04-28T07:18:26Z</time>
      </trkpt>
      <trkpt lat="49.2078" lon="7.00174">
        <ele>292.38</ele>
        <time>2019-04-28T07:18:44Z</time>
      </trkpt>
      <trkpt lat="49.20796" lon="7.00149">
        <ele>293.34</ele>
        <time>2019-04-28T07:19:01Z</time>
      </trkpt>
      <trkpt lat="49.20806" lon="7.00143">
        <ele>294.3</ele>
        <time>2019-04-28T07:19:14Z</time>
      </trkpt>
      <trkpt lat="49.20823" lon="7.00136">
        <ele>294.3</ele>
        <time>2019-04-28T07:19:28Z</time>
      </trkpt>
      <trkpt lat="49.20843" lon="7.0014">
        <ele>294.3</ele>
        <time>2019-04-28T07:19:43Z</time>
      </trkpt>
      <trkpt lat="49.20866" lon="7.00145">
        <ele>295.74</ele>
        <time>2019-04-28T07:19:58Z</time>
      </trkpt>
      <trkpt lat="49.20884" lon="7.00158">
        <ele>295.74</ele>
        <time>2019-04-28T07:20:13Z</time>
      </trkpt>
      <trkpt lat="49.20893" lon="7.00177">
        <ele>297.18</ele>
        <time>2019-04-28T07:20:27Z</time>
      </trkpt>
      <trkpt lat="49.20909" lon="7.00209">
        <ele>298.15</ele>
        <time>2019-04-28T07:20:47Z</time>
      </trkpt>
      <trkpt lat="49.20928" lon="7.00247">
        <ele>298.15</ele>
        <time>2019-04-28T07:21:05Z</time>
      </trkpt>
      <trkpt lat="49.20947" lon="7.00285">
        <ele>298.15</ele>
        <time>2019-04-28T07:21:25Z</time>
      </trkpt>
      <trkpt lat="49.20965" lon="7.00325">
        <ele>299.59</ele>
        <time>2019-04-28T07:21:46Z</time>
      </trkpt>
      <trkpt lat="49.20972" lon="7.00364">
        <ele>300.07</ele>
        <time>2019-04-28T07:22:05Z</time>
      </trkpt>
      <trkpt lat="49.20977" lon="7.00397">
        <ele>301.51</ele>
        <time>2019-04-28T07:22:23Z</time>
      </trkpt>
      <trkpt lat="49.20985" lon="7.00438">
        <ele>301.99</ele>
        <time>2019-04-28T07:22:43Z</time>
      </trkpt>
      <trkpt lat="49.20985" lon="7.00475">
        <ele>302.95</ele>
        <time>2019-04-28T07:23:02Z</time>
      </trkpt>
      <trkpt lat="49.20968" lon="7.00512">
        <ele>303.91</ele>
        <time>2019-04-28T07:23:20Z</time>
      </trkpt>
      <trkpt lat="49.20967" lon="7.00514">
        <ele>304.39</ele>
        <time>2019-04-28T07:23:21Z</time>
      </trkpt>
      <trkpt lat="49.20951" lon="7.00549">
        <ele>303.91</ele>
        <time>2019-04-28T07:23:41Z</time>
      </trkpt>
      <trkpt lat="49.20946" lon="7.00578">
        <ele>304.88</ele>
        <time>2019-04-28T07:23:59Z</time>
      </trkpt>
      <trkpt lat="49.20943" lon="7.00616">
        <ele>304.88</ele>
        <time>2019-04-28T07:24:17Z</time>
      </trkpt>
      <trkpt lat="49.20936" lon="7.00648">
        <ele>305.36</ele>
        <time>2019-04-28T07:24:35Z</time>
      </trkpt>
      <trkpt lat="49.20924" lon="7.00691">
        <ele>305.36</ele>
        <time>2019-04-28T07:24:53Z</time>
      </trkpt>
      <trkpt lat="49.2091" lon="7.00715">
        <ele>305.36</ele>
        <time>2019-04-28T07:25:06Z</time>
      </trkpt>
      <trkpt lat="49.2089" lon="7.00741">
        <ele>305.84</ele>
        <time>2019-04-28T07:25:24Z</time>
      </trkpt>
      <trkpt lat="49.2087" lon="7.0076">
        <ele>305.84</ele>
        <time>2019-04-28T07:25:40Z</time>
      </trkpt>
      <trkpt lat="49.20851" lon="7.00778">
        <ele>306.32</ele>
        <time>2019-04-28T07:25:57Z</time>
      </trkpt>
      <trkpt lat="49.20832" lon="7.00804">
        <ele>306.8</ele>
        <time>2019-04-28T07:26:16Z</time>
      </trkpt>
      <trkpt lat="49.20822" lon="7.00844">
        <ele>305.84</ele>
        <time>2019-04-28T07:26:34Z</time>
      </trkpt>
      <trkpt lat="49.20819" lon="7.0088">
        <ele>305.84</ele>
        <time>2019-04-28T07:26:50Z</time>
      </trkpt>
      <trkpt lat="49.20806" lon="7.00915">
        <ele>304.88</ele>
        <time>2019-04-28T07:27:07Z</time>
      </trkpt>
      <trkpt lat="49.20796" lon="7.0094">
        <ele>304.39</ele>
        <time>2019-04-28T07:27:21Z</time>
      </trkpt>
      <trkpt lat="49.20785" lon="7.00984">
        <ele>303.43</ele>
        <time>2019-04-28T07:27:40Z</time>
      </trkpt>
      <trkpt lat="49.20779" lon="7.01027">
        <ele>302.95</ele>
        <time>2019-04-28T07:27:59Z</time>
      </trkpt>
      <trkpt lat="49.20779" lon="7.01058">
        <ele>302.47</ele>
        <time>2019-04-28T07:28:12Z</time>
      </trkpt>
      <trkpt lat="49.20771" lon="7.01104">
        <ele>301.51</ele>
        <time>2019-04-28T07:28:30Z</time>
      </trkpt>
      <trkpt lat="49.20759" lon="7.01151">
        <ele>300.07</ele>
        <time>2019-04-28T07:28:46Z</time>
      </trkpt>
      <trkpt lat="49.20748" lon="7.01189">
        <ele>300.55</ele>
        <time>2019-04-28T07:29:02Z</time>
      </trkpt>
      <trkpt lat="49.20738" lon="7.01226">
        <ele>301.03</ele>
        <time>2019-04-28T07:29:21Z</time>
      </trkpt>
      <trkpt lat="49.20732" lon="7.01259">
        <ele>300.55</ele>
        <time>2019-04-28T07:29:35Z</time>
      </trkpt>
      <trkpt lat="49.20722" lon="7.01282">
        <ele>301.03</ele>
        <time>2019-04-28T07:29:50Z</time>
      </trkpt>
      <trkpt lat="49.20713" lon="7.01264">
        <ele>303.91</ele>
        <time>2019-04-28T07:30:06Z</time>
      </trkpt>
      <trkpt lat="49.20706" lon="7.01249">
        <ele>304.88</ele>
        <time>2019-04-28T07:30:13Z</time>
      </trkpt>
      <trkpt lat="49.2068" lon="7.01199">
        <ele>307.76</ele>
        <time>2019-04-28T07:30:31Z</time>
      </trkpt>
      <trkpt lat="49.20672" lon="7.01161">
        <ele>310.16</ele>
        <time>2019-04-28T07:30:48Z</time>
      </trkpt>
      <trkpt lat="49.20666" lon="7.01119">
        <ele>312.57</ele>
        <time>2019-04-28T07:31:07Z</time>
      </trkpt>
      <trkpt lat="49.20657" lon="7.01088">
        <ele>314.01</ele>
        <time>2019-04-28T07:31:22Z</time>
      </trkpt>
      <trkpt lat="49.2065" lon="7.01067">
        <ele>314.01</ele>
        <time>2019-04-28T07:31:35Z</time>
      </trkpt>
      <trkpt lat="49.20635" lon="7.01021">
        <ele>315.93</ele>
        <time>2019-04-28T07:31:55Z</time>
      </trkpt>
      <trkpt lat="49.20633" lon="7.01012">
        <ele>316.41</ele>
        <time>2019-04-28T07:31:59Z</time>
      </trkpt>
      <trkpt lat="49.20623" lon="7.00971">
        <ele>317.85</ele>
        <time>2019-04-28T07:32:18Z</time>
      </trkpt>
      <trkpt lat="49.20608" lon="7.00925">
        <ele>319.3</ele>
        <time>2019-04-28T07:32:40Z</time>
      </trkpt>
      <trkpt lat="49.20595" lon="7.00892">
        <ele>320.26</ele>
        <time>2019-04-28T07:32:55Z</time>
      </trkpt>
      <trkpt lat="49.20584" lon="7.0085">
        <ele>321.7</ele>
        <time>2019-04-28T07:33:12Z</time>
      </trkpt>
      <trkpt lat="49.20583" lon="7.00848">
        <ele>322.18</ele>
        <time>2019-04-28T07:33:13Z</time>
      </trkpt>
      <trkpt lat="49.20581" lon="7.00807">
        <ele>323.14</ele>
        <time>2019-04-28T07:33:29Z</time>
      </trkpt>
      <trkpt lat="49.2057" lon="7.00767">
        <ele>324.58</ele>
        <time>2019-04-28T07:33:46Z</time>
      </trkpt>
      <trkpt lat="49.20562" lon="7.00731">
        <ele>326.5</ele>
        <time>2019-04-28T07:34:05Z</time>
      </trkpt>
      <trkpt lat="49.20555" lon="7.00707">
        <ele>327.47</ele>
        <time>2019-04-28T07:34:16Z</time>
      </trkpt>
      <trkpt lat="49.20543" lon="7.00664">
        <ele>328.43</ele>
        <time>2019-04-28T07:34:36Z</time>
      </trkpt>
      <trkpt lat="49.20533" lon="7.00626">
        <ele>329.87</ele>
        <time>2019-04-28T07:34:55Z</time>
      </trkpt>
      <trkpt lat="49.20528" lon="7.0059">
        <ele>330.83</ele>
        <time>2019-04-28T07:35:11Z</time>
      </trkpt>
      <trkpt lat="49.20518" lon="7.00554">
        <ele>331.79</ele>
        <time>2019-04-28T07:35:30Z</time>
      </trkpt>
      <trkpt lat="49.20504" lon="7.00504">
        <ele>332.27</ele>
        <time>2019-04-28T07:35:50Z</time>
      </trkpt>
      <trkpt lat="49.20504" lon="7.00467">
        <ele>333.23</ele>
        <time>2019-04-28T07:36:07Z</time>
      </trkpt>
      <trkpt lat="49.20497" lon="7.00417">
        <ele>333.23</ele>
        <time>2019-04-28T07:36:25Z</time>
      </trkpt>
      <trkpt lat="49.2049" lon="7.00392">
        <ele>333.71</ele>
        <time>2019-04-28T07:36:37Z</time>
      </trkpt>
      <trkpt lat="49.2049" lon="7.00388">
        <ele>334.2</ele>
        <time>2019-04-28T07:36:39Z</time>
      </trkpt>
      <trkpt lat="49.20489" lon="7.0038">
        <ele>333.71</ele>
        <time>2019-04-28T07:36:44Z</time>
      </trkpt>
      <trkpt lat="49.20475" lon="7.00343">
        <ele>333.71</ele>
        <time>2019-04-28T07:37:03Z</time>
      </trkpt>
      <trkpt lat="49.20474" lon="7.00338">
        <ele>334.68</ele>
        <time>2019-04-28T07:37:05Z</time>
      </trkpt>
      <trkpt lat="49.20462" lon="7.00286">
        <ele>334.2</ele>
        <time>2019-04-28T07:37:23Z</time>
      </trkpt>
      <trkpt lat="49.20449" lon="7.00252">
        <ele>333.71</ele>
        <time>2019-04-28T07:37:42Z</time>
      </trkpt>
      <trkpt lat="49.20439" lon="7.00215">
        <ele>332.27</ele>
        <time>2019-04-28T07:38:00Z</time>
      </trkpt>
      <trkpt lat="49.20429" lon="7.00175">
        <ele>334.68</ele>
        <time>2019-04-28T07:38:19Z</time>
      </trkpt>
      <trkpt lat="49.20423" lon="7.00157">
        <ele>334.2</ele>
        <time>2019-04-28T07:38:26Z</time>
      </trkpt>
      <trkpt lat="49.20413" lon="7.00111">
        <ele>333.71</ele>
        <time>2019-04-28T07:38:45Z</time>
      </trkpt>
      <trkpt lat="49.20411" lon="7.00099">
        <ele>333.71</ele>
        <time>2019-04-28T07:38:52Z</time>
      </trkpt>
      <trkpt lat="49.20404" lon="7.00045">
        <ele>334.2</ele>
        <time>2019-04-28T07:39:10Z</time>
      </trkpt>
      <trkpt lat="49.20398" lon="7.00013">
        <ele>334.68</ele>
        <time>2019-04-28T07:39:27Z</time>
      </trkpt>
      <trkpt lat="49.20386" lon="6.99964">
        <ele>336.12</ele>
        <time>2019-04-28T07:39:46Z</time>
      </trkpt>
      <trkpt lat="49.20376" lon="6.99923">
        <ele>337.08</ele>
        <time>2019-04-28T07:40:05Z</time>
      </trkpt>
      <trkpt lat="49.20365" lon="6.99885">
        <ele>338.04</ele>
        <time>2019-04-28T07:40:24Z</time>
      </trkpt>
      <trkpt lat="49.20347" lon="6.99829">
        <ele>340.44</ele>
        <time>2019-04-28T07:40:46Z</time>
      </trkpt>
      <trkpt lat="49.20334" lon="6.99782">
        <ele>341.41</ele>
        <time>2019-04-28T07:41:06Z</time>
      </trkpt>
      <trkpt lat="49.20327" lon="6.9974">
        <ele>342.85</ele>
        <time>2019-04-28T07:41:28Z</time>
      </trkpt>
      <trkpt lat="49.20316" lon="6.99702">
        <ele>343.33</ele>
        <time>2019-04-28T07:41:46Z</time>
      </trkpt>
      <trkpt lat="49.20308" lon="6.99662">
        <ele>343.33</ele>
        <time>2019-04-28T07:42:04Z</time>
      </trkpt>
      <trkpt lat="49.20296" lon="6.99621">
        <ele>344.77</ele>
        <time>2019-04-28T07:42:23Z</time>
      </trkpt>
      <trkpt lat="49.20285" lon="6.99592">
        <ele>343.81</ele>
        <time>2019-04-28T07:42:35Z</time>
      </trkpt>
      <trkpt lat="49.2028" lon="6.99591">
        <ele>343.81</ele>
        <time>2019-04-28T07:42:39Z</time>
      </trkpt>
      <trkpt lat="49.20259" lon="6.99611">
        <ele>342.37</ele>
        <time>2019-04-28T07:42:57Z</time>
      </trkpt>
      <trkpt lat="49.20234" lon="6.99629">
        <ele>341.41</ele>
        <time>2019-04-28T07:43:16Z</time>
      </trkpt>
      <trkpt lat="49.20224" lon="6.99639">
        <ele>340.44</ele>
        <time>2019-04-28T07:43:32Z</time>
      </trkpt>
      <trkpt lat="49.20201" lon="6.99657">
        <ele>339</ele>
        <time>2019-04-28T07:43:49Z</time>
      </trkpt>
      <trkpt lat="49.2019" lon="6.99665">
        <ele>338.04</ele>
        <time>2019-04-28T07:43:58Z</time>
      </trkpt>
      <trkpt lat="49.20163" lon="6.99684">
        <ele>335.64</ele>
        <time>2019-04-28T07:44:17Z</time>
      </trkpt>
      <trkpt lat="49.20143" lon="6.99692">
        <ele>335.16</ele>
        <time>2019-04-28T07:44:29Z</time>
      </trkpt>
      <trkpt lat="49.20114" lon="6.99701">
        <ele>333.23</ele>
        <time>2019-04-28T07:44:47Z</time>
      </trkpt>
      <trkpt lat="49.20082" lon="6.997">
        <ele>332.27</ele>
        <time>2019-04-28T07:45:06Z</time>
      </trkpt>
      <trkpt lat="49.20056" lon="6.99702">
        <ele>331.31</ele>
        <time>2019-04-28T07:45:25Z</time>
      </trkpt>
      <trkpt lat="49.20034" lon="6.99702">
        <ele>331.31</ele>
        <time>2019-04-28T07:45:39Z</time>
      </trkpt>
      <trkpt lat="49.20006" lon="6.99701">
        <ele>329.39</ele>
        <time>2019-04-28T07:45:56Z</time>
      </trkpt>
      <trkpt lat="49.19978" lon="6.99699">
        <ele>327.95</ele>
        <time>2019-04-28T07:46:14Z</time>
      </trkpt>
      <trkpt lat="49.19958" lon="6.997">
        <ele>326.99</ele>
        <time>2019-04-28T07:46:28Z</time>
      </trkpt>
      <trkpt lat="49.19927" lon="6.99703">
        <ele>326.02</ele>
        <time>2019-04-28T07:46:44Z</time>
      </trkpt>
      <trkpt lat="49.19902" lon="6.99719">
        <ele>324.1</ele>
        <time>2019-04-28T07:47:01Z</time>
      </trkpt>
      <trkpt lat="49.19891" lon="6.99729">
        <ele>322.66</ele>
        <time>2019-04-28T07:47:10Z</time>
      </trkpt>
      <trkpt lat="49.19866" lon="6.99752">
        <ele>321.22</ele>
        <time>2019-04-28T07:47:29Z</time>
      </trkpt>
      <trkpt lat="49.19839" lon="6.9977">
        <ele>319.3</ele>
        <time>2019-04-28T07:47:48Z</time>
      </trkpt>
      <trkpt lat="49.19834" lon="6.99774">
        <ele>319.3</ele>
        <time>2019-04-28T07:47:52Z</time>
      </trkpt>
      <trkpt lat="49.19824" lon="6.99782">
        <ele>318.33</ele>
        <time>2019-04-28T07:47:59Z</time>
      </trkpt>
      <trkpt lat="49.198" lon="6.99798">
        <ele>317.37</ele>
        <time>2019-04-28T07:48:15Z</time>
      </trkpt>
      <trkpt lat="49.1978" lon="6.99814">
        <ele>316.41</ele>
        <time>2019-04-28T07:48:30Z</time>
      </trkpt>
      <trkpt lat="49.1977" lon="6.99825">
        <ele>316.41</ele>
        <time>2019-04-28T07:48:38Z</time>
      </trkpt>
      <trkpt lat="49.19749" lon="6.99847">
        <ele>316.41</ele>
        <time>2019-04-28T07:48:55Z</time>
      </trkpt>
      <trkpt lat="49.19729" lon="6.99873">
        <ele>315.93</ele>
        <time>2019-04-28T07:49:13Z</time>
      </trkpt>
      <trkpt lat="49.19703" lon="6.9991">
        <ele>315.93</ele>
        <time>2019-04-28T07:49:34Z</time>
      </trkpt>
      <trkpt lat="49.19683" lon="6.99935">
        <ele>315.93</ele>
        <time>2019-04-28T07:49:51Z</time>
      </trkpt>
      <trkpt lat="49.19669" lon="6.99957">
        <ele>317.37</ele>
        <time>2019-04-28T07:50:05Z</time>
      </trkpt>
      <trkpt lat="49.19658" lon="6.99999">
        <ele>317.37</ele>
        <time>2019-04-28T07:50:22Z</time>
      </trkpt>
      <trkpt lat="49.19655" lon="7.00033">
        <ele>318.33</ele>
        <time>2019-04-28T07:50:39Z</time>
      </trkpt>
      <trkpt lat="49.19651" lon="7.00064">
        <ele>318.81</ele>
        <time>2019-04-28T07:50:55Z</time>
      </trkpt>
      <trkpt lat="49.19647" lon="7.00105">
        <ele>319.3</ele>
        <time>2019-04-28T07:51:10Z</time>
      </trkpt>
      <trkpt lat="49.19642" lon="7.00141">
        <ele>319.78</ele>
        <time>2019-04-28T07:51:27Z</time>
      </trkpt>
      <trkpt lat="49.19636" lon="7.00184">
        <ele>320.74</ele>
        <time>2019-04-28T07:51:45Z</time>
      </trkpt>
      <trkpt lat="49.19629" lon="7.00229">
        <ele>320.26</ele>
        <time>2019-04-28T07:52:03Z</time>
      </trkpt>
      <trkpt lat="49.19622" lon="7.00272">
        <ele>321.22</ele>
        <time>2019-04-28T07:52:22Z</time>
      </trkpt>
      <trkpt lat="49.19616" lon="7.00305">
        <ele>321.22</ele>
        <time>2019-04-28T07:52:37Z</time>
      </trkpt>
      <trkpt lat="49.19611" lon="7.00346">
        <ele>320.26</ele>
        <time>2019-04-28T07:52:56Z</time>
      </trkpt>
      <trkpt lat="49.19611" lon="7.00381">
        <ele>319.3</ele>
        <time>2019-04-28T07:53:12Z</time>
      </trkpt>
      <trkpt lat="49.19607" lon="7.00416">
        <ele>317.37</ele>
        <time>2019-04-28T07:53:30Z</time>
      </trkpt>
      <trkpt lat="49.19599" lon="7.00456">
        <ele>315.93</ele>
        <time>2019-04-28T07:53:48Z</time>
      </trkpt>
      <trkpt lat="49.19599" lon="7.00472">
        <ele>314.97</ele>
        <time>2019-04-28T07:53:56Z</time>
      </trkpt>
      <trkpt lat="49.19594" lon="7.0051">
        <ele>313.05</ele>
        <time>2019-04-28T07:54:14Z</time>
      </trkpt>
      <trkpt lat="49.19588" lon="7.00556">
        <ele>311.12</ele>
        <time>2019-04-28T07:54:31Z</time>
      </trkpt>
      <trkpt lat="49.19589" lon="7.00602">
        <ele>308.24</ele>
        <time>2019-04-28T07:54:49Z</time>
      </trkpt>
      <trkpt lat="49.19589" lon="7.00604">
        <ele>307.76</ele>
        <time>2019-04-28T07:54:50Z</time>
      </trkpt>
      <trkpt lat="49.19593" lon="7.00651">
        <ele>305.84</ele>
        <time>2019-04-28T07:55:07Z</time>
      </trkpt>
      <trkpt lat="49.19593" lon="7.00664">
        <ele>305.36</ele>
        <time>2019-04-28T07:55:13Z</time>
      </trkpt>
      <trkpt lat="49.19593" lon="7.00678">
        <ele>304.88</ele>
        <time>2019-04-28T07:55:19Z</time>
      </trkpt>
      <trkpt lat="49.19593" lon="7.00715">
        <ele>301.99</ele>
        <time>2019-04-28T07:55:34Z</time>
      </trkpt>
      <trkpt lat="49.19594" lon="7.00752">
        <ele>300.55</ele>
        <time>2019-04-28T07:55:46Z</time>
      </trkpt>
      <trkpt lat="49.19594" lon="7.008">
        <ele>297.67</ele>
        <time>2019-04-28T07:56:05Z</time>
      </trkpt>
      <trkpt lat="49.19599" lon="7.00848">
        <ele>295.26</ele>
        <time>2019-04-28T07:56:24Z</time>
      </trkpt>
      <trkpt lat="49.19602" lon="7.00885">
        <ele>292.38</ele>
        <time>2019-04-28T07:56:40Z</time>
      </trkpt>
      <trkpt lat="49.196" lon="7.00929">
        <ele>289.01</ele>
        <time>2019-04-28T07:56:55Z</time>
      </trkpt>
      <trkpt lat="49.196" lon="7.00936">
        <ele>288.53</ele>
        <time>2019-04-28T07:56:57Z</time>
      </trkpt>
      <trkpt lat="49.19601" lon="7.00984">
        <ele>285.65</ele>
        <time>2019-04-28T07:57:12Z</time>
      </trkpt>
      <trkpt lat="49.19602" lon="7.01025">
        <ele>284.21</ele>
        <time>2019-04-28T07:57:31Z</time>
      </trkpt>
      <trkpt lat="49.19601" lon="7.01064">
        <ele>282.77</ele>
        <time>2019-04-28T07:57:48Z</time>
      </trkpt>
      <trkpt lat="49.19601" lon="7.01117">
        <ele>280.84</ele>
        <time>2019-04-28T07:58:04Z</time>
      </trkpt>
      <trkpt lat="49.19601" lon="7.0116">
        <ele>277.96</ele>
        <time>2019-04-28T07:58:21Z</time>
      </trkpt>
      <trkpt lat="49.19604" lon="7.01185">
        <ele>274.59</ele>
        <time>2019-04-28T07:58:34Z</time>
      </trkpt>
      <trkpt lat="49.19604" lon="7.01193">
        <ele>273.15</ele>
        <time>2019-04-28T07:58:38Z</time>
      </trkpt>
      <trkpt lat="49.19605" lon="7.01203">
        <ele>271.71</ele>
        <time>2019-04-28T07:58:43Z</time>
      </trkpt>
      <trkpt lat="49.19605" lon="7.01219">
        <ele>268.35</ele>
        <time>2019-04-28T07:58:54Z</time>
      </trkpt>
      <trkpt lat="49.19606" lon="7.01233">
        <ele>264.98</ele>
        <time>2019-04-28T07:59:03Z</time>
      </trkpt>
      <trkpt lat="49.19612" lon="7.01245">
        <ele>263.54</ele>
        <time>2019-04-28T07:59:10Z</time>
      </trkpt>
      <trkpt lat="49.19613" lon="7.01246">
        <ele>263.06</ele>
        <time>2019-04-28T07:59:11Z</time>
      </trkpt>
      <trkpt lat="49.19614" lon="7.01245">
        <ele>263.06</ele>
        <time>2019-04-28T07:59:12Z</time>
      </trkpt>
      <trkpt lat="49.19621" lon="7.01239">
        <ele>262.1</ele>
        <time>2019-04-28T07:59:20Z</time>
      </trkpt>
      <trkpt lat="49.19622" lon="7.01237">
        <ele>262.1</ele>
        <time>2019-04-28T07:59:21Z</time>
      </trkpt>
      <trkpt lat="49.19623" lon="7.01222">
        <ele>261.62</ele>
        <time>2019-04-28T07:59:29Z</time>
      </trkpt>
      <trkpt lat="49.19625" lon="7.01188">
        <ele>260.17</ele>
        <time>2019-04-28T07:59:45Z</time>
      </trkpt>
      <trkpt lat="49.19628" lon="7.01147">
        <ele>257.77</ele>
        <time>2019-04-28T08:00:04Z</time>
      </trkpt>
      <trkpt lat="49.19637" lon="7.011">
        <ele>254.89</ele>
        <time>2019-04-28T08:00:23Z</time>
      </trkpt>
      <trkpt lat="49.19646" lon="7.01068">
        <ele>252.48</ele>
        <time>2019-04-28T08:00:40Z</time>
      </trkpt>
      <trkpt lat="49.19651" lon="7.01049">
        <ele>251.52</ele>
        <time>2019-04-28T08:00:50Z</time>
      </trkpt>
      <trkpt lat="49.19651" lon="7.01048">
        <ele>252</ele>
        <time>2019-04-28T08:00:51Z</time>
      </trkpt>
      <trkpt lat="49.19658" lon="7.01013">
        <ele>248.64</ele>
        <time>2019-04-28T08:01:09Z</time>
      </trkpt>
      <trkpt lat="49.1967" lon="7.0099">
        <ele>246.72</ele>
        <time>2019-04-28T08:01:23Z</time>
      </trkpt>
      <trkpt lat="49.19679" lon="7.00965">
        <ele>245.27</ele>
        <time>2019-04-28T08:01:34Z</time>
      </trkpt>
      <trkpt lat="49.19684" lon="7.00944">
        <ele>244.31</ele>
        <time>2019-04-28T08:01:45Z</time>
      </trkpt>
      <trkpt lat="49.19703" lon="7.00913">
        <ele>240.95</ele>
        <time>2019-04-28T08:02:01Z</time>
      </trkpt>
      <trkpt lat="49.19716" lon="7.00884">
        <ele>239.99</ele>
        <time>2019-04-28T08:02:18Z</time>
      </trkpt>
      <trkpt lat="49.19721" lon="7.00847">
        <ele>237.1</ele>
        <time>2019-04-28T08:02:35Z</time>
      </trkpt>
      <trkpt lat="49.19729" lon="7.00812">
        <ele>234.7</ele>
        <time>2019-04-28T08:02:52Z</time>
      </trkpt>
      <trkpt lat="49.19737" lon="7.00784">
        <ele>233.26</ele>
        <time>2019-04-28T08:03:08Z</time>
      </trkpt>
      <trkpt lat="49.19738" lon="7.0078">
        <ele>232.3</ele>
        <time>2019-04-28T08:03:11Z</time>
      </trkpt>
      <trkpt lat="49.19759" lon="7.0075">
        <ele>230.37</ele>
        <time>2019-04-28T08:03:26Z</time>
      </trkpt>
      <trkpt lat="49.19762" lon="7.00742">
        <ele>229.89</ele>
        <time>2019-04-28T08:03:30Z</time>
      </trkpt>
      <trkpt lat="49.19777" lon="7.00723">
        <ele>227.97</ele>
        <time>2019-04-28T08:03:48Z</time>
      </trkpt>
      <trkpt lat="49.19787" lon="7.00728">
        <ele>227.01</ele>
        <time>2019-04-28T08:03:54Z</time>
      </trkpt>
      <trkpt lat="49.19787" lon="7.00729">
        <ele>226.53</ele>
        <time>2019-04-28T08:03:55Z</time>
      </trkpt>
      <trkpt lat="49.19787" lon="7.0073">
        <ele>226.53</ele>
        <time>2019-04-28T08:03:56Z</time>
      </trkpt>
      <trkpt lat="49.19787" lon="7.00732">
        <ele>226.05</ele>
        <time>2019-04-28T08:03:57Z</time>
      </trkpt>
      <trkpt lat="49.19787" lon="7.00732">
        <ele>227.01</ele>
        <time>2019-04-28T08:03:58Z</time>
      </trkpt>
      <trkpt lat="49.19781" lon="7.00762">
        <ele>223.64</ele>
        <time>2019-04-28T08:04:14Z</time>
      </trkpt>
      <trkpt lat="49.19779" lon="7.00786">
        <ele>221.72</ele>
        <time>2019-04-28T08:04:28Z</time>
      </trkpt>
      <trkpt lat="49.19781" lon="7.00828">
        <ele>218.84</ele>
        <time>2019-04-28T08:04:47Z</time>
      </trkpt>
      <trkpt lat="49.19789" lon="7.00864">
        <ele>216.91</ele>
        <time>2019-04-28T08:05:05Z</time>
      </trkpt>
      <trkpt lat="49.19788" lon="7.00892">
        <ele>214.51</ele>
        <time>2019-04-28T08:05:18Z</time>
      </trkpt>
      <trkpt lat="49.19787" lon="7.00895">
        <ele>214.03</ele>
        <time>2019-04-28T08:05:19Z</time>
      </trkpt>
      <trkpt lat="49.19786" lon="7.00903">
        <ele>214.03</ele>
        <time>2019-04-28T08:05:20Z</time>
      </trkpt>
      <trkpt lat="49.19777" lon="7.00944">
        <ele>211.63</ele>
        <time>2019-04-28T08:05:37Z</time>
      </trkpt>
      <trkpt lat="49.19777" lon="7.0095">
        <ele>210.67</ele>
        <time>2019-04-28T08:05:41Z</time>
      </trkpt>
      <trkpt lat="49.19773" lon="7.00995">
        <ele>208.26</ele>
        <time>2019-04-28T08:05:58Z</time>
      </trkpt>
      <trkpt lat="49.19773" lon="7.00997">
        <ele>208.26</ele>
        <time>2019-04-28T08:05:59Z</time>
      </trkpt>
      <trkpt lat="49.19765" lon="7.01029">
        <ele>207.3</ele>
        <time>2019-04-28T08:06:12Z</time>
      </trkpt>
      <trkpt lat="49.19754" lon="7.01049">
        <ele>203.94</ele>
        <time>2019-04-28T08:06:23Z</time>
      </trkpt>
      <trkpt lat="49.19752" lon="7.01089">
        <ele>202.01</ele>
        <time>2019-04-28T08:06:40Z</time>
      </trkpt>
      <trkpt lat="49.19758" lon="7.01113">
        <ele>201.05</ele>
        <time>2019-04-28T08:06:50Z</time>
      </trkpt>
      <trkpt lat="49.19773" lon="7.01147">
        <ele>197.69</ele>
        <time>2019-04-28T08:07:09Z</time>
      </trkpt>
      <trkpt lat="49.19785" lon="7.01191">
        <ele>194.8</ele>
        <time>2019-04-28T08:07:27Z</time>
      </trkpt>
      <trkpt lat="49.19788" lon="7.01225">
        <ele>193.36</ele>
        <time>2019-04-28T08:07:42Z</time>
      </trkpt>
      <trkpt lat="49.19785" lon="7.01259">
        <ele>191.92</ele>
        <time>2019-04-28T08:07:59Z</time>
      </trkpt>
      <trkpt lat="49.19785" lon="7.01262">
        <ele>191.92</ele>
        <time>2019-04-28T08:08:00Z</time>
      </trkpt>
      <trkpt lat="49.19784" lon="7.01284">
        <ele>191.92</ele>
        <time>2019-04-28T08:08:12Z</time>
      </trkpt>
      <trkpt lat="49.19784" lon="7.0132">
        <ele>190</ele>
        <time>2019-04-28T08:08:29Z</time>
      </trkpt>
      <trkpt lat="49.19779" lon="7.01352">
        <ele>189.04</ele>
        <time>2019-04-28T08:08:37Z</time>
      </trkpt>
      <trkpt lat="49.19763" lon="7.01391">
        <ele>190</ele>
        <time>2019-04-28T08:08:56Z</time>
      </trkpt>
      <trkpt lat="49.19762" lon="7.01394">
        <ele>190</ele>
        <time>2019-04-28T08:08:57Z</time>
      </trkpt>
      <trkpt lat="49.19761" lon="7.01396">
        <ele>189.04</ele>
        <time>2019-04-28T08:08:58Z</time>
      </trkpt>
      <trkpt lat="49.19745" lon="7.01417">
        <ele>190</ele>
        <time>2019-04-28T08:09:13Z</time>
      </trkpt>
      <trkpt lat="49.19724" lon="7.01428">
        <ele>190.48</ele>
        <time>2019-04-28T08:09:30Z</time>
      </trkpt>
      <trkpt lat="49.19706" lon="7.01431">
        <ele>192.88</ele>
        <time>2019-04-28T08:09:46Z</time>
      </trkpt>
      <trkpt lat="49.19682" lon="7.01437">
        <ele>195.77</ele>
        <time>2019-04-28T08:10:01Z</time>
      </trkpt>
      <trkpt lat="49.19656" lon="7.01432">
        <ele>198.65</ele>
        <time>2019-04-28T08:10:15Z</time>
      </trkpt>
      <trkpt lat="49.19639" lon="7.01423">
        <ele>202.49</ele>
        <time>2019-04-28T08:10:28Z</time>
      </trkpt>
      <trkpt lat="49.19634" lon="7.0142">
        <ele>202.49</ele>
        <time>2019-04-28T08:10:31Z</time>
      </trkpt>
      <trkpt lat="49.19624" lon="7.01414">
        <ele>204.9</ele>
        <time>2019-04-28T08:10:41Z</time>
      </trkpt>
      <trkpt lat="49.19617" lon="7.01412">
        <ele>206.34</ele>
        <time>2019-04-28T08:10:49Z</time>
      </trkpt>
      <trkpt lat="49.19616" lon="7.01412">
        <ele>206.82</ele>
        <time>2019-04-28T08:10:50Z</time>
      </trkpt>
      <trkpt lat="49.19601" lon="7.01407">
        <ele>210.19</ele>
        <time>2019-04-28T08:11:01Z</time>
      </trkpt>
      <trkpt lat="49.19599" lon="7.01407">
        <ele>209.7</ele>
        <time>2019-04-28T08:11:03Z</time>
      </trkpt>
      <trkpt lat="49.19598" lon="7.01407">
        <ele>210.67</ele>
        <time>2019-04-28T08:11:04Z</time>
      </trkpt>
      <trkpt lat="49.19597" lon="7.01406">
        <ele>210.67</ele>
        <time>2019-04-28T08:11:05Z</time>
      </trkpt>
      <trkpt lat="49.19596" lon="7.01406">
        <ele>211.15</ele>
        <time>2019-04-28T08:11:06Z</time>
      </trkpt>
      <trkpt lat="49.19595" lon="7.01406">
        <ele>211.15</ele>
        <time>2019-04-28T08:11:07Z</time>
      </trkpt>
      <trkpt lat="49.1958" lon="7.01399">
        <ele>214.03</ele>
        <time>2019-04-28T08:11:21Z</time>
      </trkpt>
      <trkpt lat="49.19566" lon="7.01391">
        <ele>215.47</ele>
        <time>2019-04-28T08:11:36Z</time>
      </trkpt>
      <trkpt lat="49.19544" lon="7.0138">
        <ele>216.91</ele>
        <time>2019-04-28T08:11:50Z</time>
      </trkpt>
      <trkpt lat="49.19524" lon="7.01356">
        <ele>216.43</ele>
        <time>2019-04-28T08:12:09Z</time>
      </trkpt>
      <trkpt lat="49.19506" lon="7.01333">
        <ele>214.51</ele>
        <time>2019-04-28T08:12:25Z</time>
      </trkpt>
      <trkpt lat="49.19493" lon="7.01306">
        <ele>213.55</ele>
        <time>2019-04-28T08:12:44Z</time>
      </trkpt>
      <trkpt lat="49.19486" lon="7.01281">
        <ele>214.99</ele>
        <time>2019-04-28T08:12:59Z</time>
      </trkpt>
      <trkpt lat="49.19486" lon="7.01261">
        <ele>213.55</ele>
        <time>2019-04-28T08:13:14Z</time>
      </trkpt>
      <trkpt lat="49.1947" lon="7.01219">
        <ele>214.03</ele>
        <time>2019-04-28T08:13:29Z</time>
      </trkpt>
      <trkpt lat="49.19457" lon="7.01201">
        <ele>213.55</ele>
        <time>2019-04-28T08:13:38Z</time>
      </trkpt>
      <trkpt lat="49.19437" lon="7.01206">
        <ele>210.19</ele>
        <time>2019-04-28T08:13:50Z</time>
      </trkpt>
      <trkpt lat="49.19433" lon="7.01208">
        <ele>209.22</ele>
        <time>2019-04-28T08:13:53Z</time>
      </trkpt>
      <trkpt lat="49.19408" lon="7.01217">
        <ele>208.26</ele>
        <time>2019-04-28T08:14:10Z</time>
      </trkpt>
      <trkpt lat="49.19392" lon="7.01232">
        <ele>209.22</ele>
        <time>2019-04-28T08:14:23Z</time>
      </trkpt>
      <trkpt lat="49.19391" lon="7.01243">
        <ele>209.7</ele>
        <time>2019-04-28T08:14:29Z</time>
      </trkpt>
      <trkpt lat="49.19393" lon="7.01262">
        <ele>208.74</ele>
        <time>2019-04-28T08:14:45Z</time>
      </trkpt>
      <trkpt lat="49.19399" lon="7.01275">
        <ele>208.26</ele>
        <time>2019-04-28T08:14:52Z</time>
      </trkpt>
      <trkpt lat="49.19406" lon="7.0133">
        <ele>206.82</ele>
        <time>2019-04-28T08:15:10Z</time>
      </trkpt>
      <trkpt lat="49.19408" lon="7.01353">
        <ele>206.34</ele>
        <time>2019-04-28T08:15:17Z</time>
      </trkpt>
      <trkpt lat="49.19401" lon="7.01401">
        <ele>203.94</ele>
        <time>2019-04-28T08:15:38Z</time>
      </trkpt>
      <trkpt lat="49.19394" lon="7.01436">
        <ele>202.98</ele>
        <time>2019-04-28T08:15:54Z</time>
      </trkpt>
      <trkpt lat="49.19389" lon="7.01481">
        <ele>201.53</ele>
        <time>2019-04-28T08:16:13Z</time>
      </trkpt>
      <trkpt lat="49.19383" lon="7.01518">
        <ele>201.05</ele>
        <time>2019-04-28T08:16:30Z</time>
      </trkpt>
      <trkpt lat="49.19382" lon="7.0152">
        <ele>200.57</ele>
        <time>2019-04-28T08:16:31Z</time>
      </trkpt>
      <trkpt lat="49.19382" lon="7.01522">
        <ele>201.05</ele>
        <time>2019-04-28T08:16:32Z</time>
      </trkpt>
      <trkpt lat="49.19381" lon="7.01524">
        <ele>201.05</ele>
        <time>2019-04-28T08:16:33Z</time>
      </trkpt>
      <trkpt lat="49.1938" lon="7.01526">
        <ele>201.53</ele>
        <time>2019-04-28T08:16:34Z</time>
      </trkpt>
      <trkpt lat="49.19378" lon="7.01527">
        <ele>200.57</ele>
        <time>2019-04-28T08:16:35Z</time>
      </trkpt>
      <trkpt lat="49.19377" lon="7.01527">
        <ele>201.05</ele>
        <time>2019-04-28T08:16:36Z</time>
      </trkpt>
      <trkpt lat="49.19375" lon="7.01527">
        <ele>201.05</ele>
        <time>2019-04-28T08:16:37Z</time>
      </trkpt>
      <trkpt lat="49.19374" lon="7.01527">
        <ele>200.57</ele>
        <time>2019-04-28T08:16:38Z</time>
      </trkpt>
      <trkpt lat="49.19373" lon="7.01526">
        <ele>201.05</ele>
        <time>2019-04-28T08:16:39Z</time>
      </trkpt>
      <trkpt lat="49.1935" lon="7.01518">
        <ele>202.49</ele>
        <time>2019-04-28T08:16:55Z</time>
      </trkpt>
      <trkpt lat="49.19328" lon="7.01512">
        <ele>202.98</ele>
        <time>2019-04-28T08:17:11Z</time>
      </trkpt>
      <trkpt lat="49.19308" lon="7.01513">
        <ele>202.98</ele>
        <time>2019-04-28T08:17:27Z</time>
      </trkpt>
      <trkpt lat="49.1929" lon="7.01513">
        <ele>203.46</ele>
        <time>2019-04-28T08:17:37Z</time>
      </trkpt>
      <trkpt lat="49.19266" lon="7.01514">
        <ele>204.9</ele>
        <time>2019-04-28T08:17:54Z</time>
      </trkpt>
      <trkpt lat="49.19247" lon="7.01514">
        <ele>205.86</ele>
        <time>2019-04-28T08:18:09Z</time>
      </trkpt>
      <trkpt lat="49.19222" lon="7.01514">
        <ele>206.82</ele>
        <time>2019-04-28T08:18:26Z</time>
      </trkpt>
      <trkpt lat="49.19196" lon="7.01513">
        <ele>208.26</ele>
        <time>2019-04-28T08:18:45Z</time>
      </trkpt>
      <trkpt lat="49.19174" lon="7.01514">
        <ele>209.7</ele>
        <time>2019-04-28T08:19:00Z</time>
      </trkpt>
      <trkpt lat="49.1915" lon="7.01511">
        <ele>212.11</ele>
        <time>2019-04-28T08:19:19Z</time>
      </trkpt>
      <trkpt lat="49.19126" lon="7.01501">
        <ele>213.55</ele>
        <time>2019-04-28T08:19:35Z</time>
      </trkpt>
      <trkpt lat="49.19104" lon="7.01503">
        <ele>216.91</ele>
        <time>2019-04-28T08:19:51Z</time>
      </trkpt>
      <trkpt lat="49.19084" lon="7.01516">
        <ele>219.32</ele>
        <time>2019-04-28T08:20:08Z</time>
      </trkpt>
      <trkpt lat="49.19086" lon="7.01531">
        <ele>219.8</ele>
        <time>2019-04-28T08:20:23Z</time>
      </trkpt>
      <trkpt lat="49.19088" lon="7.0153">
        <ele>220.76</ele>
        <time>2019-04-28T08:20:46Z</time>
      </trkpt>
      <trkpt lat="49.19086" lon="7.01528">
        <ele>220.28</ele>
        <time>2019-04-28T08:21:09Z</time>
      </trkpt>
      <trkpt lat="49.19091" lon="7.01528">
        <ele>220.76</ele>
        <time>2019-04-28T08:21:36Z</time>
      </trkpt>
      <trkpt lat="49.19087" lon="7.01529">
        <ele>220.76</ele>
        <time>2019-04-28T08:22:03Z</time>
      </trkpt>
      <trkpt lat="49.19086" lon="7.0153">
        <ele>220.76</ele>
        <time>2019-04-28T08:22:21Z</time>
      </trkpt>
      <trkpt lat="49.19084" lon="7.01527">
        <ele>220.76</ele>
        <time>2019-04-28T08:22:40Z</time>
      </trkpt>
      <trkpt lat="49.19081" lon="7.01527">
        <ele>221.24</ele>
        <time>2019-04-28T08:22:59Z</time>
      </trkpt>
      <trkpt lat="49.19083" lon="7.01527">
        <ele>220.76</ele>
        <time>2019-04-28T08:23:11Z</time>
      </trkpt>
      <trkpt lat="49.19086" lon="7.01529">
        <ele>220.76</ele>
        <time>2019-04-28T08:23:32Z</time>
      </trkpt>
      <trkpt lat="49.19085" lon="7.01528">
        <ele>221.72</ele>
        <time>2019-04-28T08:23:52Z</time>
      </trkpt>
      <trkpt lat="49.19087" lon="7.01528">
        <ele>220.76</ele>
        <time>2019-04-28T08:24:16Z</time>
      </trkpt>
      <trkpt lat="49.19088" lon="7.01522">
        <ele>221.24</ele>
        <time>2019-04-28T08:24:45Z</time>
      </trkpt>
      <trkpt lat="49.19085" lon="7.01528">
        <ele>222.2</ele>
        <time>2019-04-28T08:25:15Z</time>
      </trkpt>
      <trkpt lat="49.19072" lon="7.01525">
        <ele>220.76</ele>
        <time>2019-04-28T08:25:31Z</time>
      </trkpt>
      <trkpt lat="49.19046" lon="7.01536">
        <ele>219.8</ele>
        <time>2019-04-28T08:25:50Z</time>
      </trkpt>
      <trkpt lat="49.19028" lon="7.01558">
        <ele>217.88</ele>
        <time>2019-04-28T08:26:06Z</time>
      </trkpt>
      <trkpt lat="49.19013" lon="7.01578">
        <ele>217.4</ele>
        <time>2019-04-28T08:26:19Z</time>
      </trkpt>
      <trkpt lat="49.18993" lon="7.01603">
        <ele>214.99</ele>
        <time>2019-04-28T08:26:34Z</time>
      </trkpt>
      <trkpt lat="49.18974" lon="7.01622">
        <ele>213.55</ele>
        <time>2019-04-28T08:26:48Z</time>
      </trkpt>
      <trkpt lat="49.18954" lon="7.01644">
        <ele>211.15</ele>
        <time>2019-04-28T08:27:03Z</time>
      </trkpt>
      <trkpt lat="49.18932" lon="7.01672">
        <ele>209.7</ele>
        <time>2019-04-28T08:27:20Z</time>
      </trkpt>
      <trkpt lat="49.18907" lon="7.01701">
        <ele>207.3</ele>
        <time>2019-04-28T08:27:39Z</time>
      </trkpt>
      <trkpt lat="49.18885" lon="7.01715">
        <ele>205.86</ele>
        <time>2019-04-28T08:27:54Z</time>
      </trkpt>
      <trkpt lat="49.18864" lon="7.0169">
        <ele>205.38</ele>
        <time>2019-04-28T08:28:09Z</time>
      </trkpt>
      <trkpt lat="49.18841" lon="7.01663">
        <ele>205.38</ele>
        <time>2019-04-28T08:28:27Z</time>
      </trkpt>
      <trkpt lat="49.18821" lon="7.01639">
        <ele>206.34</ele>
        <time>2019-04-28T08:28:44Z</time>
      </trkpt>
      <trkpt lat="49.18801" lon="7.01621">
        <ele>209.7</ele>
        <time>2019-04-28T08:28:58Z</time>
      </trkpt>
      <trkpt lat="49.18782" lon="7.01603">
        <ele>211.63</ele>
        <time>2019-04-28T08:29:13Z</time>
      </trkpt>
      <trkpt lat="49.18765" lon="7.01591">
        <ele>213.55</ele>
        <time>2019-04-28T08:29:25Z</time>
      </trkpt>
      <trkpt lat="49.1874" lon="7.01569">
        <ele>211.63</ele>
        <time>2019-04-28T08:29:43Z</time>
      </trkpt>
      <trkpt lat="49.18723" lon="7.01546">
        <ele>212.59</ele>
        <time>2019-04-28T08:29:59Z</time>
      </trkpt>
      <trkpt lat="49.18707" lon="7.01517">
        <ele>212.59</ele>
        <time>2019-04-28T08:30:15Z</time>
      </trkpt>
      <trkpt lat="49.18696" lon="7.01485">
        <ele>211.63</ele>
        <time>2019-04-28T08:30:32Z</time>
      </trkpt>
      <trkpt lat="49.18683" lon="7.01453">
        <ele>211.15</ele>
        <time>2019-04-28T08:30:48Z</time>
      </trkpt>
      <trkpt lat="49.18682" lon="7.01443">
        <ele>211.63</ele>
        <time>2019-04-28T08:30:53Z</time>
      </trkpt>
      <trkpt lat="49.18681" lon="7.01431">
        <ele>211.15</ele>
        <time>2019-04-28T08:30:58Z</time>
      </trkpt>
      <trkpt lat="49.18679" lon="7.01421">
        <ele>210.67</ele>
        <time>2019-04-28T08:31:02Z</time>
      </trkpt>
      <trkpt lat="49.1866" lon="7.01383">
        <ele>209.22</ele>
        <time>2019-04-28T08:31:18Z</time>
      </trkpt>
      <trkpt lat="49.18649" lon="7.01358">
        <ele>206.82</ele>
        <time>2019-04-28T08:31:32Z</time>
      </trkpt>
      <trkpt lat="49.18645" lon="7.0135">
        <ele>206.34</ele>
        <time>2019-04-28T08:31:36Z</time>
      </trkpt>
      <trkpt lat="49.18638" lon="7.01335">
        <ele>206.34</ele>
        <time>2019-04-28T08:31:43Z</time>
      </trkpt>
      <trkpt lat="49.18635" lon="7.01326">
        <ele>206.34</ele>
        <time>2019-04-28T08:31:47Z</time>
      </trkpt>
      <trkpt lat="49.18623" lon="7.01305">
        <ele>205.38</ele>
        <time>2019-04-28T08:32:00Z</time>
      </trkpt>
      <trkpt lat="49.18619" lon="7.01296">
        <ele>204.9</ele>
        <time>2019-04-28T08:32:04Z</time>
      </trkpt>
      <trkpt lat="49.18605" lon="7.01256">
        <ele>205.86</ele>
        <time>2019-04-28T08:32:20Z</time>
      </trkpt>
      <trkpt lat="49.18591" lon="7.01217">
        <ele>204.9</ele>
        <time>2019-04-28T08:32:37Z</time>
      </trkpt>
      <trkpt lat="49.18581" lon="7.01185">
        <ele>205.86</ele>
        <time>2019-04-28T08:32:51Z</time>
      </trkpt>
      <trkpt lat="49.18569" lon="7.01143">
        <ele>206.34</ele>
        <time>2019-04-28T08:33:08Z</time>
      </trkpt>
      <trkpt lat="49.18554" lon="7.01103">
        <ele>207.3</ele>
        <time>2019-04-28T08:33:26Z</time>
      </trkpt>
      <trkpt lat="49.18538" lon="7.01063">
        <ele>206.34</ele>
        <time>2019-04-28T08:33:44Z</time>
      </trkpt>
      <trkpt lat="49.1853" lon="7.01047">
        <ele>205.86</ele>
        <time>2019-04-28T08:33:52Z</time>
      </trkpt>
      <trkpt lat="49.18514" lon="7.01017">
        <ele>204.42</ele>
        <time>2019-04-28T08:34:07Z</time>
      </trkpt>
      <trkpt lat="49.185" lon="7.00981">
        <ele>204.42</ele>
        <time>2019-04-28T08:34:23Z</time>
      </trkpt>
      <trkpt lat="49.18486" lon="7.00942">
        <ele>203.94</ele>
        <time>2019-04-28T08:34:41Z</time>
      </trkpt>
      <trkpt lat="49.18469" lon="7.00906">
        <ele>204.42</ele>
        <time>2019-04-28T08:34:59Z</time>
      </trkpt>
      <trkpt lat="49.18449" lon="7.00872">
        <ele>204.9</ele>
        <time>2019-04-28T08:35:16Z</time>
      </trkpt>
      <trkpt lat="49.18431" lon="7.00838">
        <ele>206.34</ele>
        <time>2019-04-28T08:35:33Z</time>
      </trkpt>
      <trkpt lat="49.18414" lon="7.00797">
        <ele>204.9</ele>
        <time>2019-04-28T08:35:52Z</time>
      </trkpt>
      <trkpt lat="49.18401" lon="7.00765">
        <ele>205.38</ele>
        <time>2019-04-28T08:36:08Z</time>
      </trkpt>
      <trkpt lat="49.18386" lon="7.00733">
        <ele>205.86</ele>
        <time>2019-04-28T08:36:24Z</time>
      </trkpt>
      <trkpt lat="49.1837" lon="7.00699">
        <ele>205.86</ele>
        <time>2019-04-28T08:36:40Z</time>
      </trkpt>
      <trkpt lat="49.18357" lon="7.00654">
        <ele>206.34</ele>
        <time>2019-04-28T08:37:00Z</time>
      </trkpt>
      <trkpt lat="49.18349" lon="7.00612">
        <ele>206.82</ele>
        <time>2019-04-28T08:37:18Z</time>
      </trkpt>
      <trkpt lat="49.18344" lon="7.00572">
        <ele>208.26</ele>
        <time>2019-04-28T08:37:35Z</time>
      </trkpt>
      <trkpt lat="49.18339" lon="7.00537">
        <ele>209.22</ele>
        <time>2019-04-28T08:37:50Z</time>
      </trkpt>
      <trkpt lat="49.18335" lon="7.00501">
        <ele>209.22</ele>
        <time>2019-04-28T08:38:06Z</time>
      </trkpt>
      <trkpt lat="49.18331" lon="7.00458">
        <ele>209.7</ele>
        <time>2019-04-28T08:38:24Z</time>
      </trkpt>
      <trkpt lat="49.18324" lon="7.00416">
        <ele>210.67</ele>
        <time>2019-04-28T08:38:41Z</time>
      </trkpt>
      <trkpt lat="49.18324" lon="7.00375">
        <ele>210.19</ele>
        <time>2019-04-28T08:38:58Z</time>
      </trkpt>
      <trkpt lat="49.18324" lon="7.00331">
        <ele>212.11</ele>
        <time>2019-04-28T08:39:17Z</time>
      </trkpt>
      <trkpt lat="49.18326" lon="7.00304">
        <ele>213.07</ele>
        <time>2019-04-28T08:39:33Z</time>
      </trkpt>
      <trkpt lat="49.18328" lon="7.0026">
        <ele>212.59</ele>
        <time>2019-04-28T08:39:50Z</time>
      </trkpt>
      <trkpt lat="49.18338" lon="7.00206">
        <ele>211.63</ele>
        <time>2019-04-28T08:40:11Z</time>
      </trkpt>
      <trkpt lat="49.1835" lon="7.00162">
        <ele>211.63</ele>
        <time>2019-04-28T08:40:30Z</time>
      </trkpt>
      <trkpt lat="49.18361" lon="7.00117">
        <ele>210.19</ele>
        <time>2019-04-28T08:40:48Z</time>
      </trkpt>
      <trkpt lat="49.1837" lon="7.00076">
        <ele>210.19</ele>
        <time>2019-04-28T08:41:06Z</time>
      </trkpt>
      <trkpt lat="49.18385" lon="7.00044">
        <ele>210.19</ele>
        <time>2019-04-28T08:41:22Z</time>
      </trkpt>
      <trkpt lat="49.1841" lon="7.00016">
        <ele>211.63</ele>
        <time>2019-04-28T08:41:41Z</time>
      </trkpt>
      <trkpt lat="49.18436" lon="7.00007">
        <ele>212.11</ele>
        <time>2019-04-28T08:41:59Z</time>
      </trkpt>
      <trkpt lat="49.18457" lon="7.00009">
        <ele>212.11</ele>
        <time>2019-04-28T08:42:14Z</time>
      </trkpt>
      <trkpt lat="49.18483" lon="6.99998">
        <ele>213.55</ele>
        <time>2019-04-28T08:42:29Z</time>
      </trkpt>
      <trkpt lat="49.18513" lon="6.99977">
        <ele>214.51</ele>
        <time>2019-04-28T08:42:49Z</time>
      </trkpt>
      <trkpt lat="49.18536" lon="6.9995">
        <ele>215.95</ele>
        <time>2019-04-28T08:43:07Z</time>
      </trkpt>
      <trkpt lat="49.18556" lon="6.99922">
        <ele>217.4</ele>
        <time>2019-04-28T08:43:25Z</time>
      </trkpt>
      <trkpt lat="49.18573" lon="6.99897">
        <ele>218.36</ele>
        <time>2019-04-28T08:43:42Z</time>
      </trkpt>
      <trkpt lat="49.18593" lon="6.9987">
        <ele>219.8</ele>
        <time>2019-04-28T08:43:59Z</time>
      </trkpt>
      <trkpt lat="49.18611" lon="6.99845">
        <ele>222.2</ele>
        <time>2019-04-28T08:44:15Z</time>
      </trkpt>
      <trkpt lat="49.18631" lon="6.99823">
        <ele>225.57</ele>
        <time>2019-04-28T08:44:31Z</time>
      </trkpt>
      <trkpt lat="49.18653" lon="6.99805">
        <ele>227.49</ele>
        <time>2019-04-28T08:44:49Z</time>
      </trkpt>
      <trkpt lat="49.18671" lon="6.9979">
        <ele>229.41</ele>
        <time>2019-04-28T08:45:05Z</time>
      </trkpt>
      <trkpt lat="49.18689" lon="6.99773">
        <ele>227.49</ele>
        <time>2019-04-28T08:45:21Z</time>
      </trkpt>
      <trkpt lat="49.18703" lon="6.99754">
        <ele>226.05</ele>
        <time>2019-04-28T08:45:34Z</time>
      </trkpt>
      <trkpt lat="49.18719" lon="6.99741">
        <ele>223.64</ele>
        <time>2019-04-28T08:45:48Z</time>
      </trkpt>
      <trkpt lat="49.18729" lon="6.99735">
        <ele>223.16</ele>
        <time>2019-04-28T08:45:55Z</time>
      </trkpt>
      <trkpt lat="49.18738" lon="6.99735">
        <ele>222.68</ele>
        <time>2019-04-28T08:46:01Z</time>
      </trkpt>
      <trkpt lat="49.18745" lon="6.99732">
        <ele>222.2</ele>
        <time>2019-04-28T08:46:06Z</time>
      </trkpt>
      <trkpt lat="49.18768" lon="6.99691">
        <ele>221.24</ele>
        <time>2019-04-28T08:46:26Z</time>
      </trkpt>
      <trkpt lat="49.18772" lon="6.99646">
        <ele>220.28</ele>
        <time>2019-04-28T08:46:45Z</time>
      </trkpt>
      <trkpt lat="49.18777" lon="6.99618">
        <ele>220.28</ele>
        <time>2019-04-28T08:46:57Z</time>
      </trkpt>
      <trkpt lat="49.18801" lon="6.99598">
        <ele>220.76</ele>
        <time>2019-04-28T08:47:16Z</time>
      </trkpt>
      <trkpt lat="49.18819" lon="6.99579">
        <ele>221.72</ele>
        <time>2019-04-28T08:47:33Z</time>
      </trkpt>
      <trkpt lat="49.18838" lon="6.99549">
        <ele>223.16</ele>
        <time>2019-04-28T08:47:50Z</time>
      </trkpt>
      <trkpt lat="49.18862" lon="6.99521">
        <ele>223.16</ele>
        <time>2019-04-28T08:48:09Z</time>
      </trkpt>
      <trkpt lat="49.18887" lon="6.9949">
        <ele>223.16</ele>
        <time>2019-04-28T08:48:31Z</time>
      </trkpt>
      <trkpt lat="49.18903" lon="6.99463">
        <ele>222.68</ele>
        <time>2019-04-28T08:48:48Z</time>
      </trkpt>
      <trkpt lat="49.18904" lon="6.9946">
        <ele>222.68</ele>
        <time>2019-04-28T08:48:50Z</time>
      </trkpt>
      <trkpt lat="49.18895" lon="6.99417">
        <ele>221.72</ele>
        <time>2019-04-28T08:49:09Z</time>
      </trkpt>
      <trkpt lat="49.18882" lon="6.99373">
        <ele>221.24</ele>
        <time>2019-04-28T08:49:28Z</time>
      </trkpt>
      <trkpt lat="49.18881" lon="6.99362">
        <ele>221.72</ele>
        <time>2019-04-28T08:49:33Z</time>
      </trkpt>
      <trkpt lat="49.18875" lon="6.99326">
        <ele>222.2</ele>
        <time>2019-04-28T08:49:49Z</time>
      </trkpt>
      <trkpt lat="49.1887" lon="6.99293">
        <ele>221.72</ele>
        <time>2019-04-28T08:50:04Z</time>
      </trkpt>
      <trkpt lat="49.18866" lon="6.99252">
        <ele>222.68</ele>
        <time>2019-04-28T08:50:19Z</time>
      </trkpt>
      <trkpt lat="49.18866" lon="6.99215">
        <ele>223.16</ele>
        <time>2019-04-28T08:50:35Z</time>
      </trkpt>
      <trkpt lat="49.18865" lon="6.99172">
        <ele>223.64</ele>
        <time>2019-04-28T08:50:53Z</time>
      </trkpt>
      <trkpt lat="49.18864" lon="6.99138">
        <ele>223.64</ele>
        <time>2019-04-28T08:51:08Z</time>
      </trkpt>
      <trkpt lat="49.18866" lon="6.99098">
        <ele>225.09</ele>
        <time>2019-04-28T08:51:25Z</time>
      </trkpt>
      <trkpt lat="49.18868" lon="6.99057">
        <ele>225.09</ele>
        <time>2019-04-28T08:51:43Z</time>
      </trkpt>
      <trkpt lat="49.18869" lon="6.99021">
        <ele>225.09</ele>
        <time>2019-04-28T08:52:00Z</time>
      </trkpt>
      <trkpt lat="49.18869" lon="6.99019">
        <ele>225.09</ele>
        <time>2019-04-28T08:52:01Z</time>
      </trkpt>
      <trkpt lat="49.18873" lon="6.98983">
        <ele>225.09</ele>
        <time>2019-04-28T08:52:17Z</time>
      </trkpt>
      <trkpt lat="49.18874" lon="6.98945">
        <ele>227.01</ele>
        <time>2019-04-28T08:52:33Z</time>
      </trkpt>
      <trkpt lat="49.18873" lon="6.98904">
        <ele>227.49</ele>
        <time>2019-04-28T08:52:51Z</time>
      </trkpt>
      <trkpt lat="49.18867" lon="6.9886">
        <ele>228.93</ele>
        <time>2019-04-28T08:53:08Z</time>
      </trkpt>
      <trkpt lat="49.18862" lon="6.98821">
        <ele>229.41</ele>
        <time>2019-04-28T08:53:25Z</time>
      </trkpt>
      <trkpt lat="49.18854" lon="6.98775">
        <ele>230.37</ele>
        <time>2019-04-28T08:53:43Z</time>
      </trkpt>
      <trkpt lat="49.18845" lon="6.98731">
        <ele>231.33</ele>
        <time>2019-04-28T08:54:03Z</time>
      </trkpt>
      <trkpt lat="49.18835" lon="6.98693">
        <ele>231.81</ele>
        <time>2019-04-28T08:54:19Z</time>
      </trkpt>
      <trkpt lat="49.18826" lon="6.98652">
        <ele>232.3</ele>
        <time>2019-04-28T08:54:37Z</time>
      </trkpt>
      <trkpt lat="49.18816" lon="6.98612">
        <ele>233.74</ele>
        <time>2019-04-28T08:54:55Z</time>
      </trkpt>
      <trkpt lat="49.18806" lon="6.98567">
        <ele>235.18</ele>
        <time>2019-04-28T08:55:13Z</time>
      </trkpt>
      <trkpt lat="49.18796" lon="6.98525">
        <ele>236.14</ele>
        <time>2019-04-28T08:55:32Z</time>
      </trkpt>
      <trkpt lat="49.18785" lon="6.98483">
        <ele>237.1</ele>
        <time>2019-04-28T08:55:50Z</time>
      </trkpt>
      <trkpt lat="49.18775" lon="6.98442">
        <ele>238.06</ele>
        <time>2019-04-28T08:56:09Z</time>
      </trkpt>
      <trkpt lat="49.18766" lon="6.98407">
        <ele>238.54</ele>
        <time>2019-04-28T08:56:25Z</time>
      </trkpt>
      <trkpt lat="49.18756" lon="6.98366">
        <ele>239.02</ele>
        <time>2019-04-28T08:56:44Z</time>
      </trkpt>
      <trkpt lat="49.1875" lon="6.98322">
        <ele>240.47</ele>
        <time>2019-04-28T08:57:03Z</time>
      </trkpt>
      <trkpt lat="49.18749" lon="6.98274">
        <ele>241.91</ele>
        <time>2019-04-28T08:57:23Z</time>
      </trkpt>
      <trkpt lat="49.18748" lon="6.9824">
        <ele>242.87</ele>
        <time>2019-04-28T08:57:39Z</time>
      </trkpt>
      <trkpt lat="49.18748" lon="6.982">
        <ele>243.83</ele>
        <time>2019-04-28T08:57:58Z</time>
      </trkpt>
      <trkpt lat="49.1875" lon="6.98161">
        <ele>244.31</ele>
        <time>2019-04-28T08:58:14Z</time>
      </trkpt>
      <trkpt lat="49.18754" lon="6.9812">
        <ele>245.27</ele>
        <time>2019-04-28T08:58:31Z</time>
      </trkpt>
      <trkpt lat="49.1876" lon="6.98079">
        <ele>246.23</ele>
        <time>2019-04-28T08:58:49Z</time>
      </trkpt>
      <trkpt lat="49.18771" lon="6.98043">
        <ele>247.2</ele>
        <time>2019-04-28T08:59:07Z</time>
      </trkpt>
      <trkpt lat="49.18787" lon="6.98009">
        <ele>249.6</ele>
        <time>2019-04-28T08:59:26Z</time>
      </trkpt>
      <trkpt lat="49.18805" lon="6.97976">
        <ele>251.04</ele>
        <time>2019-04-28T08:59:45Z</time>
      </trkpt>
      <trkpt lat="49.18821" lon="6.97957">
        <ele>252.96</ele>
        <time>2019-04-28T09:00:00Z</time>
      </trkpt>
      <trkpt lat="49.18851" lon="6.97943">
        <ele>255.37</ele>
        <time>2019-04-28T09:00:20Z</time>
      </trkpt>
      <trkpt lat="49.18876" lon="6.97933">
        <ele>258.25</ele>
        <time>2019-04-28T09:00:39Z</time>
      </trkpt>
      <trkpt lat="49.18904" lon="6.97918">
        <ele>261.14</ele>
        <time>2019-04-28T09:00:59Z</time>
      </trkpt>
      <trkpt lat="49.18925" lon="6.979">
        <ele>263.06</ele>
        <time>2019-04-28T09:01:16Z</time>
      </trkpt>
      <trkpt lat="49.18928" lon="6.97896">
        <ele>263.06</ele>
        <time>2019-04-28T09:01:19Z</time>
      </trkpt>
      <trkpt lat="49.18948" lon="6.9787">
        <ele>263.54</ele>
        <time>2019-04-28T09:01:38Z</time>
      </trkpt>
      <trkpt lat="49.1896" lon="6.97855">
        <ele>264.02</ele>
        <time>2019-04-28T09:01:49Z</time>
      </trkpt>
      <trkpt lat="49.18969" lon="6.97844">
        <ele>264.5</ele>
        <time>2019-04-28T09:01:57Z</time>
      </trkpt>
      <trkpt lat="49.18989" lon="6.97818">
        <ele>264.98</ele>
        <time>2019-04-28T09:02:14Z</time>
      </trkpt>
      <trkpt lat="49.19009" lon="6.9779">
        <ele>265.46</ele>
        <time>2019-04-28T09:02:31Z</time>
      </trkpt>
      <trkpt lat="49.19027" lon="6.97758">
        <ele>266.9</ele>
        <time>2019-04-28T09:02:50Z</time>
      </trkpt>
      <trkpt lat="49.19045" lon="6.97728">
        <ele>268.83</ele>
        <time>2019-04-28T09:03:08Z</time>
      </trkpt>
      <trkpt lat="49.19058" lon="6.97697">
        <ele>270.27</ele>
        <time>2019-04-28T09:03:25Z</time>
      </trkpt>
      <trkpt lat="49.19068" lon="6.97663">
        <ele>271.23</ele>
        <time>2019-04-28T09:03:42Z</time>
      </trkpt>
      <trkpt lat="49.19071" lon="6.97625">
        <ele>270.27</ele>
        <time>2019-04-28T09:03:59Z</time>
      </trkpt>
      <trkpt lat="49.19072" lon="6.97585">
        <ele>271.71</ele>
        <time>2019-04-28T09:04:17Z</time>
      </trkpt>
      <trkpt lat="49.19074" lon="6.97545">
        <ele>273.15</ele>
        <time>2019-04-28T09:04:35Z</time>
      </trkpt>
      <trkpt lat="49.19076" lon="6.97499">
        <ele>273.63</ele>
        <time>2019-04-28T09:04:55Z</time>
      </trkpt>
      <trkpt lat="49.19084" lon="6.97457">
        <ele>275.56</ele>
        <time>2019-04-28T09:05:15Z</time>
      </trkpt>
      <trkpt lat="49.19092" lon="6.97413">
        <ele>278.44</ele>
        <time>2019-04-28T09:05:36Z</time>
      </trkpt>
      <trkpt lat="49.19099" lon="6.9737">
        <ele>280.36</ele>
        <time>2019-04-28T09:05:56Z</time>
      </trkpt>
      <trkpt lat="49.19108" lon="6.97333">
        <ele>282.77</ele>
        <time>2019-04-28T09:06:14Z</time>
      </trkpt>
      <trkpt lat="49.1912" lon="6.9729">
        <ele>284.21</ele>
        <time>2019-04-28T09:06:36Z</time>
      </trkpt>
      <trkpt lat="49.19128" lon="6.9725">
        <ele>285.65</ele>
        <time>2019-04-28T09:06:55Z</time>
      </trkpt>
      <trkpt lat="49.19139" lon="6.97205">
        <ele>288.05</ele>
        <time>2019-04-28T09:07:16Z</time>
      </trkpt>
      <trkpt lat="49.19156" lon="6.97168">
        <ele>289.49</ele>
        <time>2019-04-28T09:07:37Z</time>
      </trkpt>
      <trkpt lat="49.1917" lon="6.9715">
        <ele>293.34</ele>
        <time>2019-04-28T09:07:52Z</time>
      </trkpt>
      <trkpt lat="49.19191" lon="6.97127">
        <ele>296.22</ele>
        <time>2019-04-28T09:08:11Z</time>
      </trkpt>
      <trkpt lat="49.19207" lon="6.97094">
        <ele>298.63</ele>
        <time>2019-04-28T09:08:32Z</time>
      </trkpt>
      <trkpt lat="49.19219" lon="6.97056">
        <ele>299.11</ele>
        <time>2019-04-28T09:08:53Z</time>
      </trkpt>
      <trkpt lat="49.19225" lon="6.97017">
        <ele>299.11</ele>
        <time>2019-04-28T09:09:11Z</time>
      </trkpt>
      <trkpt lat="49.19228" lon="6.96973">
        <ele>298.63</ele>
        <time>2019-04-28T09:09:31Z</time>
      </trkpt>
      <trkpt lat="49.19235" lon="6.96941">
        <ele>298.63</ele>
        <time>2019-04-28T09:09:47Z</time>
      </trkpt>
      <trkpt lat="49.19248" lon="6.96905">
        <ele>300.07</ele>
        <time>2019-04-28T09:10:06Z</time>
      </trkpt>
      <trkpt lat="49.1925" lon="6.96889">
        <ele>301.03</ele>
        <time>2019-04-28T09:10:14Z</time>
      </trkpt>
      <trkpt lat="49.19225" lon="6.96874">
        <ele>300.07</ele>
        <time>2019-04-28T09:10:32Z</time>
      </trkpt>
      <trkpt lat="49.19207" lon="6.96862">
        <ele>299.59</ele>
        <time>2019-04-28T09:10:44Z</time>
      </trkpt>
      <trkpt lat="49.19184" lon="6.96846">
        <ele>297.67</ele>
        <time>2019-04-28T09:11:01Z</time>
      </trkpt>
      <trkpt lat="49.19179" lon="6.96841">
        <ele>297.18</ele>
        <time>2019-04-28T09:11:04Z</time>
      </trkpt>
      <trkpt lat="49.19162" lon="6.96804">
        <ele>297.67</ele>
        <time>2019-04-28T09:11:26Z</time>
      </trkpt>
      <trkpt lat="49.19143" lon="6.96773">
        <ele>298.63</ele>
        <time>2019-04-28T09:11:46Z</time>
      </trkpt>
      <trkpt lat="49.19127" lon="6.96752">
        <ele>300.07</ele>
        <time>2019-04-28T09:12:02Z</time>
      </trkpt>
      <trkpt lat="49.19107" lon="6.96734">
        <ele>301.99</ele>
        <time>2019-04-28T09:12:19Z</time>
      </trkpt>
      <trkpt lat="49.19121" lon="6.967">
        <ele>301.99</ele>
        <time>2019-04-28T09:12:38Z</time>
      </trkpt>
      <trkpt lat="49.19134" lon="6.96676">
        <ele>302.95</ele>
        <time>2019-04-28T09:12:53Z</time>
      </trkpt>
      <trkpt lat="49.19149" lon="6.96639">
        <ele>303.43</ele>
        <time>2019-04-28T09:13:13Z</time>
      </trkpt>
      <trkpt lat="49.1915" lon="6.96635">
        <ele>303.43</ele>
        <time>2019-04-28T09:13:15Z</time>
      </trkpt>
      <trkpt lat="49.19146" lon="6.96625">
        <ele>304.39</ele>
        <time>2019-04-28T09:13:20Z</time>
      </trkpt>
      <trkpt lat="49.19147" lon="6.9661">
        <ele>304.39</ele>
        <time>2019-04-28T09:13:27Z</time>
      </trkpt>
      <trkpt lat="49.19148" lon="6.96586">
        <ele>304.88</ele>
        <time>2019-04-28T09:13:38Z</time>
      </trkpt>
      <trkpt lat="49.19145" lon="6.96577">
        <ele>305.36</ele>
        <time>2019-04-28T09:13:43Z</time>
      </trkpt>
      <trkpt lat="49.19128" lon="6.96561">
        <ele>306.8</ele>
        <time>2019-04-28T09:13:57Z</time>
      </trkpt>
      <trkpt lat="49.19117" lon="6.96557">
        <ele>306.32</ele>
        <time>2019-04-28T09:14:04Z</time>
      </trkpt>
      <trkpt lat="49.1909" lon="6.96537">
        <ele>308.24</ele>
        <time>2019-04-28T09:14:25Z</time>
      </trkpt>
      <trkpt lat="49.19086" lon="6.96511">
        <ele>308.24</ele>
        <time>2019-04-28T09:14:41Z</time>
      </trkpt>
      <trkpt lat="49.19096" lon="6.96475">
        <ele>309.68</ele>
        <time>2019-04-28T09:15:01Z</time>
      </trkpt>
      <trkpt lat="49.19095" lon="6.96472">
        <ele>309.2</ele>
        <time>2019-04-28T09:15:13Z</time>
      </trkpt>
      <trkpt lat="49.19095" lon="6.96472">
        <ele>310.16</ele>
        <time>2019-04-28T09:15:18Z</time>
      </trkpt>
    </trkseg>
  </trk>
</gpx>